<?xml version="1.0" encoding="UTF-8" standalone="no" ?>
<gpx xmlns="http://www.topografix.com/GPX/1/1" xmlns:xsi="http://www.w3.org/2001/XMLSchema-instance" xsi:schemaLocation="http://www.topografix.com/GPX/1/1 http://www.topografix.com/GPX/1/1/gpx.xsd" version="1.1" creator="VisuGPX - https://www.visugpx.com">
  <metadata>
    <name>Revel-venon-revel</name>
    <desc><![CDATA[File with points/tracks from Locus Map/3.48.2]]></desc>
  </metadata>
  <trk>
    <name><![CDATA[2020-10-12 13:18:13]]></name>
    <desc><![CDATA[Venon]]></desc>
    <extensions>
      <line xmlns="http://www.topografix.com/GPX/gpx_style/0/2">
        <color>0000FF</color>
        <opacity>0.59</opacity>
        <width>6.0</width>
      </line>
    </extensions>
    <trkseg>
      <trkpt lat="45.17989" lon="5.88433">
        <ele>767.9</ele>
        <time>2020-10-12T11:18:24.000Z</time>
      </trkpt>
      <trkpt lat="45.17976" lon="5.88452">
        <ele>748.51</ele>
        <time>2020-10-12T11:18:54.000Z</time>
      </trkpt>
      <trkpt lat="45.17957" lon="5.88464">
        <ele>747.86</ele>
        <time>2020-10-12T11:18:59.000Z</time>
      </trkpt>
      <trkpt lat="45.17933" lon="5.88475">
        <ele>750.83</ele>
        <time>2020-10-12T11:19:04.000Z</time>
      </trkpt>
      <trkpt lat="45.17913" lon="5.88488">
        <ele>752.69</ele>
        <time>2020-10-12T11:19:09.000Z</time>
      </trkpt>
      <trkpt lat="45.17889" lon="5.88502">
        <ele>748.6</ele>
        <time>2020-10-12T11:19:14.000Z</time>
      </trkpt>
      <trkpt lat="45.17866" lon="5.88515">
        <ele>749.44</ele>
        <time>2020-10-12T11:19:19.000Z</time>
      </trkpt>
      <trkpt lat="45.17836" lon="5.88525">
        <ele>751.5</ele>
        <time>2020-10-12T11:19:24.000Z</time>
      </trkpt>
      <trkpt lat="45.17807" lon="5.88533">
        <ele>752.2</ele>
        <time>2020-10-12T11:19:29.000Z</time>
      </trkpt>
      <trkpt lat="45.17775" lon="5.88536">
        <ele>754.08</ele>
        <time>2020-10-12T11:19:34.000Z</time>
      </trkpt>
      <trkpt lat="45.17744" lon="5.88531">
        <ele>756.61</ele>
        <time>2020-10-12T11:19:39.000Z</time>
      </trkpt>
      <trkpt lat="45.17712" lon="5.88511">
        <ele>760.89</ele>
        <time>2020-10-12T11:19:44.000Z</time>
      </trkpt>
      <trkpt lat="45.17682" lon="5.88501">
        <ele>760.66</ele>
        <time>2020-10-12T11:19:49.000Z</time>
      </trkpt>
      <trkpt lat="45.17655" lon="5.88486">
        <ele>760.54</ele>
        <time>2020-10-12T11:19:54.000Z</time>
      </trkpt>
      <trkpt lat="45.17629" lon="5.88476">
        <ele>760.7</ele>
        <time>2020-10-12T11:19:59.000Z</time>
      </trkpt>
      <trkpt lat="45.17602" lon="5.88483">
        <ele>764.02</ele>
        <time>2020-10-12T11:20:04.000Z</time>
      </trkpt>
      <trkpt lat="45.17576" lon="5.88501">
        <ele>763.38</ele>
        <time>2020-10-12T11:20:09.000Z</time>
      </trkpt>
      <trkpt lat="45.17555" lon="5.88522">
        <ele>765.83</ele>
        <time>2020-10-12T11:20:14.000Z</time>
      </trkpt>
      <trkpt lat="45.17534" lon="5.88549">
        <ele>768.1</ele>
        <time>2020-10-12T11:20:19.000Z</time>
      </trkpt>
      <trkpt lat="45.17511" lon="5.88573">
        <ele>768.03</ele>
        <time>2020-10-12T11:20:24.000Z</time>
      </trkpt>
      <trkpt lat="45.17485" lon="5.88583">
        <ele>771.57</ele>
        <time>2020-10-12T11:20:29.000Z</time>
      </trkpt>
      <trkpt lat="45.1746" lon="5.88581">
        <ele>776.76</ele>
        <time>2020-10-12T11:20:34.000Z</time>
      </trkpt>
      <trkpt lat="45.17434" lon="5.88578">
        <ele>780.2</ele>
        <time>2020-10-12T11:20:39.000Z</time>
      </trkpt>
      <trkpt lat="45.17409" lon="5.88576">
        <ele>781.76</ele>
        <time>2020-10-12T11:20:44.000Z</time>
      </trkpt>
      <trkpt lat="45.17378" lon="5.88573">
        <ele>784.68</ele>
        <time>2020-10-12T11:20:49.000Z</time>
      </trkpt>
      <trkpt lat="45.17348" lon="5.88569">
        <ele>785.24</ele>
        <time>2020-10-12T11:20:54.000Z</time>
      </trkpt>
      <trkpt lat="45.17317" lon="5.88562">
        <ele>789.18</ele>
        <time>2020-10-12T11:20:59.000Z</time>
      </trkpt>
      <trkpt lat="45.17288" lon="5.88564">
        <ele>791.72</ele>
        <time>2020-10-12T11:21:04.000Z</time>
      </trkpt>
      <trkpt lat="45.17263" lon="5.88567">
        <ele>789.4</ele>
        <time>2020-10-12T11:21:09.000Z</time>
      </trkpt>
      <trkpt lat="45.17235" lon="5.88587">
        <ele>783.29</ele>
        <time>2020-10-12T11:21:14.000Z</time>
      </trkpt>
      <trkpt lat="45.17216" lon="5.88611">
        <ele>783.31</ele>
        <time>2020-10-12T11:21:19.000Z</time>
      </trkpt>
      <trkpt lat="45.17191" lon="5.8864">
        <ele>785.66</ele>
        <time>2020-10-12T11:21:24.000Z</time>
      </trkpt>
      <trkpt lat="45.17162" lon="5.8867">
        <ele>786.74</ele>
        <time>2020-10-12T11:21:29.000Z</time>
      </trkpt>
      <trkpt lat="45.17136" lon="5.8869">
        <ele>792.99</ele>
        <time>2020-10-12T11:21:34.000Z</time>
      </trkpt>
      <trkpt lat="45.17111" lon="5.8871">
        <ele>788.73</ele>
        <time>2020-10-12T11:21:39.000Z</time>
      </trkpt>
      <trkpt lat="45.17083" lon="5.88715">
        <ele>785.96</ele>
        <time>2020-10-12T11:21:44.000Z</time>
      </trkpt>
      <trkpt lat="45.17059" lon="5.88688">
        <ele>790.29</ele>
        <time>2020-10-12T11:21:49.000Z</time>
      </trkpt>
      <trkpt lat="45.17037" lon="5.88665">
        <ele>791.18</ele>
        <time>2020-10-12T11:21:54.000Z</time>
      </trkpt>
      <trkpt lat="45.17008" lon="5.88664">
        <ele>791.88</ele>
        <time>2020-10-12T11:21:59.000Z</time>
      </trkpt>
      <trkpt lat="45.16976" lon="5.88679">
        <ele>789.47</ele>
        <time>2020-10-12T11:22:04.000Z</time>
      </trkpt>
      <trkpt lat="45.16946" lon="5.88691">
        <ele>789.8</ele>
        <time>2020-10-12T11:22:09.000Z</time>
      </trkpt>
      <trkpt lat="45.16914" lon="5.88699">
        <ele>788.99</ele>
        <time>2020-10-12T11:22:14.000Z</time>
      </trkpt>
      <trkpt lat="45.16881" lon="5.88703">
        <ele>790.77</ele>
        <time>2020-10-12T11:22:19.000Z</time>
      </trkpt>
      <trkpt lat="45.16848" lon="5.88702">
        <ele>793.11</ele>
        <time>2020-10-12T11:22:24.000Z</time>
      </trkpt>
      <trkpt lat="45.16817" lon="5.88711">
        <ele>789.98</ele>
        <time>2020-10-12T11:22:29.000Z</time>
      </trkpt>
      <trkpt lat="45.16788" lon="5.88725">
        <ele>790.59</ele>
        <time>2020-10-12T11:22:34.000Z</time>
      </trkpt>
      <trkpt lat="45.16755" lon="5.88736">
        <ele>790.62</ele>
        <time>2020-10-12T11:22:39.000Z</time>
      </trkpt>
      <trkpt lat="45.16724" lon="5.88737">
        <ele>792.82</ele>
        <time>2020-10-12T11:22:44.000Z</time>
      </trkpt>
      <trkpt lat="45.16692" lon="5.88739">
        <ele>792.69</ele>
        <time>2020-10-12T11:22:49.000Z</time>
      </trkpt>
      <trkpt lat="45.16651" lon="5.88735">
        <ele>793.93</ele>
        <time>2020-10-12T11:22:54.000Z</time>
      </trkpt>
      <trkpt lat="45.16604" lon="5.88724">
        <ele>791.92</ele>
        <time>2020-10-12T11:22:59.000Z</time>
      </trkpt>
      <trkpt lat="45.16554" lon="5.88712">
        <ele>792.46</ele>
        <time>2020-10-12T11:23:04.000Z</time>
      </trkpt>
      <trkpt lat="45.16521" lon="5.88668">
        <ele>790.71</ele>
        <time>2020-10-12T11:23:09.000Z</time>
      </trkpt>
      <trkpt lat="45.16505" lon="5.88604">
        <ele>793.26</ele>
        <time>2020-10-12T11:23:14.000Z</time>
      </trkpt>
      <trkpt lat="45.16503" lon="5.88553">
        <ele>796.32</ele>
        <time>2020-10-12T11:23:19.000Z</time>
      </trkpt>
      <trkpt lat="45.16526" lon="5.88522">
        <ele>794.37</ele>
        <time>2020-10-12T11:23:24.000Z</time>
      </trkpt>
      <trkpt lat="45.16551" lon="5.88512">
        <ele>793.79</ele>
        <time>2020-10-12T11:23:29.000Z</time>
      </trkpt>
      <trkpt lat="45.16574" lon="5.88502">
        <ele>786.59</ele>
        <time>2020-10-12T11:23:34.000Z</time>
      </trkpt>
      <trkpt lat="45.16597" lon="5.88489">
        <ele>782.49</ele>
        <time>2020-10-12T11:23:39.000Z</time>
      </trkpt>
      <trkpt lat="45.16634" lon="5.88485">
        <ele>788.47</ele>
        <time>2020-10-12T11:23:44.000Z</time>
      </trkpt>
      <trkpt lat="45.16656" lon="5.88469">
        <ele>791.67</ele>
        <time>2020-10-12T11:23:49.000Z</time>
      </trkpt>
      <trkpt lat="45.16681" lon="5.88466">
        <ele>793.88</ele>
        <time>2020-10-12T11:23:54.000Z</time>
      </trkpt>
      <trkpt lat="45.16711" lon="5.88466">
        <ele>799.29</ele>
        <time>2020-10-12T11:23:59.000Z</time>
      </trkpt>
      <trkpt lat="45.16742" lon="5.88468">
        <ele>790.26</ele>
        <time>2020-10-12T11:24:04.000Z</time>
      </trkpt>
      <trkpt lat="45.16767" lon="5.88446">
        <ele>790.61</ele>
        <time>2020-10-12T11:24:09.000Z</time>
      </trkpt>
      <trkpt lat="45.16779" lon="5.88399">
        <ele>791.1</ele>
        <time>2020-10-12T11:24:14.000Z</time>
      </trkpt>
      <trkpt lat="45.16799" lon="5.88364">
        <ele>786.85</ele>
        <time>2020-10-12T11:24:19.000Z</time>
      </trkpt>
      <trkpt lat="45.16808" lon="5.8834">
        <ele>786.73</ele>
        <time>2020-10-12T11:24:24.000Z</time>
      </trkpt>
      <trkpt lat="45.16822" lon="5.88315">
        <ele>788.93</ele>
        <time>2020-10-12T11:24:29.000Z</time>
      </trkpt>
      <trkpt lat="45.16836" lon="5.88296">
        <ele>793.12</ele>
        <time>2020-10-12T11:24:34.000Z</time>
      </trkpt>
      <trkpt lat="45.16856" lon="5.88288">
        <ele>794.78</ele>
        <time>2020-10-12T11:24:39.000Z</time>
      </trkpt>
      <trkpt lat="45.16867" lon="5.88265">
        <ele>795.05</ele>
        <time>2020-10-12T11:24:44.000Z</time>
      </trkpt>
      <trkpt lat="45.1689" lon="5.88249">
        <ele>794.15</ele>
        <time>2020-10-12T11:24:49.000Z</time>
      </trkpt>
      <trkpt lat="45.16911" lon="5.88234">
        <ele>796.32</ele>
        <time>2020-10-12T11:24:54.000Z</time>
      </trkpt>
      <trkpt lat="45.1694" lon="5.88214">
        <ele>795.82</ele>
        <time>2020-10-12T11:24:59.000Z</time>
      </trkpt>
      <trkpt lat="45.16956" lon="5.88208">
        <ele>800.65</ele>
        <time>2020-10-12T11:25:04.000Z</time>
      </trkpt>
      <trkpt lat="45.16971" lon="5.88202">
        <ele>803.63</ele>
        <time>2020-10-12T11:25:09.000Z</time>
      </trkpt>
      <trkpt lat="45.16991" lon="5.88188">
        <ele>805.1</ele>
        <time>2020-10-12T11:25:14.000Z</time>
      </trkpt>
      <trkpt lat="45.17009" lon="5.88174">
        <ele>806.33</ele>
        <time>2020-10-12T11:25:19.000Z</time>
      </trkpt>
      <trkpt lat="45.17024" lon="5.88167">
        <ele>805.41</ele>
        <time>2020-10-12T11:25:24.000Z</time>
      </trkpt>
      <trkpt lat="45.17042" lon="5.88151">
        <ele>805.42</ele>
        <time>2020-10-12T11:25:29.000Z</time>
      </trkpt>
      <trkpt lat="45.17061" lon="5.88134">
        <ele>807.83</ele>
        <time>2020-10-12T11:25:34.000Z</time>
      </trkpt>
      <trkpt lat="45.17086" lon="5.88117">
        <ele>813.2</ele>
        <time>2020-10-12T11:25:39.000Z</time>
      </trkpt>
      <trkpt lat="45.17105" lon="5.88096">
        <ele>815.73</ele>
        <time>2020-10-12T11:25:44.000Z</time>
      </trkpt>
      <trkpt lat="45.17121" lon="5.88077">
        <ele>817.32</ele>
        <time>2020-10-12T11:25:49.000Z</time>
      </trkpt>
      <trkpt lat="45.17134" lon="5.88049">
        <ele>821.2</ele>
        <time>2020-10-12T11:25:54.000Z</time>
      </trkpt>
      <trkpt lat="45.17149" lon="5.88028">
        <ele>819.76</ele>
        <time>2020-10-12T11:25:59.000Z</time>
      </trkpt>
      <trkpt lat="45.1716" lon="5.88004">
        <ele>820</ele>
        <time>2020-10-12T11:26:04.000Z</time>
      </trkpt>
      <trkpt lat="45.17173" lon="5.8798">
        <ele>824.2</ele>
        <time>2020-10-12T11:26:09.000Z</time>
      </trkpt>
      <trkpt lat="45.1719" lon="5.87958">
        <ele>824.67</ele>
        <time>2020-10-12T11:26:14.000Z</time>
      </trkpt>
      <trkpt lat="45.17207" lon="5.87932">
        <ele>826.13</ele>
        <time>2020-10-12T11:26:19.000Z</time>
      </trkpt>
      <trkpt lat="45.17226" lon="5.87915">
        <ele>829.13</ele>
        <time>2020-10-12T11:26:24.000Z</time>
      </trkpt>
      <trkpt lat="45.1724" lon="5.87891">
        <ele>829.71</ele>
        <time>2020-10-12T11:26:29.000Z</time>
      </trkpt>
      <trkpt lat="45.17257" lon="5.87865">
        <ele>836.92</ele>
        <time>2020-10-12T11:26:34.000Z</time>
      </trkpt>
      <trkpt lat="45.17275" lon="5.8784">
        <ele>839.96</ele>
        <time>2020-10-12T11:26:39.000Z</time>
      </trkpt>
      <trkpt lat="45.1729" lon="5.87813">
        <ele>836.6</ele>
        <time>2020-10-12T11:26:44.000Z</time>
      </trkpt>
      <trkpt lat="45.17307" lon="5.87779">
        <ele>837.31</ele>
        <time>2020-10-12T11:26:49.000Z</time>
      </trkpt>
      <trkpt lat="45.17326" lon="5.87748">
        <ele>837.3</ele>
        <time>2020-10-12T11:26:54.000Z</time>
      </trkpt>
      <trkpt lat="45.17344" lon="5.87721">
        <ele>832.28</ele>
        <time>2020-10-12T11:26:59.000Z</time>
      </trkpt>
      <trkpt lat="45.17358" lon="5.87682">
        <ele>834.75</ele>
        <time>2020-10-12T11:27:04.000Z</time>
      </trkpt>
      <trkpt lat="45.17369" lon="5.87645">
        <ele>835.27</ele>
        <time>2020-10-12T11:27:09.000Z</time>
      </trkpt>
      <trkpt lat="45.1737" lon="5.87606">
        <ele>836.74</ele>
        <time>2020-10-12T11:27:14.000Z</time>
      </trkpt>
      <trkpt lat="45.17361" lon="5.87558">
        <ele>838.05</ele>
        <time>2020-10-12T11:27:19.000Z</time>
      </trkpt>
      <trkpt lat="45.17345" lon="5.87509">
        <ele>837.4</ele>
        <time>2020-10-12T11:27:24.000Z</time>
      </trkpt>
      <trkpt lat="45.17318" lon="5.87464">
        <ele>837.3</ele>
        <time>2020-10-12T11:27:29.000Z</time>
      </trkpt>
      <trkpt lat="45.17286" lon="5.87434">
        <ele>837.57</ele>
        <time>2020-10-12T11:27:34.000Z</time>
      </trkpt>
      <trkpt lat="45.17248" lon="5.874">
        <ele>840.24</ele>
        <time>2020-10-12T11:27:39.000Z</time>
      </trkpt>
      <trkpt lat="45.17218" lon="5.87357">
        <ele>835.01</ele>
        <time>2020-10-12T11:27:44.000Z</time>
      </trkpt>
      <trkpt lat="45.17199" lon="5.87294">
        <ele>833.26</ele>
        <time>2020-10-12T11:27:49.000Z</time>
      </trkpt>
      <trkpt lat="45.17187" lon="5.87229">
        <ele>831.76</ele>
        <time>2020-10-12T11:27:54.000Z</time>
      </trkpt>
      <trkpt lat="45.17168" lon="5.87166">
        <ele>827.22</ele>
        <time>2020-10-12T11:27:59.000Z</time>
      </trkpt>
      <trkpt lat="45.17144" lon="5.87099">
        <ele>824.47</ele>
        <time>2020-10-12T11:28:04.000Z</time>
      </trkpt>
      <trkpt lat="45.17115" lon="5.87029">
        <ele>823.61</ele>
        <time>2020-10-12T11:28:09.000Z</time>
      </trkpt>
      <trkpt lat="45.17082" lon="5.86957">
        <ele>817.96</ele>
        <time>2020-10-12T11:28:14.000Z</time>
      </trkpt>
      <trkpt lat="45.17052" lon="5.86886">
        <ele>817.14</ele>
        <time>2020-10-12T11:28:19.000Z</time>
      </trkpt>
      <trkpt lat="45.17018" lon="5.86816">
        <ele>812.24</ele>
        <time>2020-10-12T11:28:24.000Z</time>
      </trkpt>
      <trkpt lat="45.16984" lon="5.86741">
        <ele>813.03</ele>
        <time>2020-10-12T11:28:29.000Z</time>
      </trkpt>
      <trkpt lat="45.16954" lon="5.86679">
        <ele>812.46</ele>
        <time>2020-10-12T11:28:34.000Z</time>
      </trkpt>
      <trkpt lat="45.1694" lon="5.8662">
        <ele>808.08</ele>
        <time>2020-10-12T11:28:39.000Z</time>
      </trkpt>
      <trkpt lat="45.16905" lon="5.86564">
        <ele>811.05</ele>
        <time>2020-10-12T11:28:44.000Z</time>
      </trkpt>
      <trkpt lat="45.16886" lon="5.86498">
        <ele>812.12</ele>
        <time>2020-10-12T11:28:49.000Z</time>
      </trkpt>
      <trkpt lat="45.16873" lon="5.86434">
        <ele>810.75</ele>
        <time>2020-10-12T11:28:54.000Z</time>
      </trkpt>
      <trkpt lat="45.16853" lon="5.8638">
        <ele>806.81</ele>
        <time>2020-10-12T11:28:59.000Z</time>
      </trkpt>
      <trkpt lat="45.1682" lon="5.86331">
        <ele>807.73</ele>
        <time>2020-10-12T11:29:04.000Z</time>
      </trkpt>
      <trkpt lat="45.16783" lon="5.86293">
        <ele>806.32</ele>
        <time>2020-10-12T11:29:09.000Z</time>
      </trkpt>
      <trkpt lat="45.16764" lon="5.86227">
        <ele>805.49</ele>
        <time>2020-10-12T11:29:14.000Z</time>
      </trkpt>
      <trkpt lat="45.16766" lon="5.86165">
        <ele>804.91</ele>
        <time>2020-10-12T11:29:19.000Z</time>
      </trkpt>
      <trkpt lat="45.16776" lon="5.86106">
        <ele>805.52</ele>
        <time>2020-10-12T11:29:24.000Z</time>
      </trkpt>
      <trkpt lat="45.16786" lon="5.86043">
        <ele>800.6</ele>
        <time>2020-10-12T11:29:29.000Z</time>
      </trkpt>
      <trkpt lat="45.16789" lon="5.85974">
        <ele>800.64</ele>
        <time>2020-10-12T11:29:34.000Z</time>
      </trkpt>
      <trkpt lat="45.16775" lon="5.85903">
        <ele>801.94</ele>
        <time>2020-10-12T11:29:39.000Z</time>
      </trkpt>
      <trkpt lat="45.16758" lon="5.8583">
        <ele>798.02</ele>
        <time>2020-10-12T11:29:44.000Z</time>
      </trkpt>
      <trkpt lat="45.16753" lon="5.85753">
        <ele>793.05</ele>
        <time>2020-10-12T11:29:49.000Z</time>
      </trkpt>
      <trkpt lat="45.16759" lon="5.85683">
        <ele>789.76</ele>
        <time>2020-10-12T11:29:54.000Z</time>
      </trkpt>
      <trkpt lat="45.16748" lon="5.8561">
        <ele>790.55</ele>
        <time>2020-10-12T11:29:59.000Z</time>
      </trkpt>
      <trkpt lat="45.16729" lon="5.85546">
        <ele>786.39</ele>
        <time>2020-10-12T11:30:04.000Z</time>
      </trkpt>
      <trkpt lat="45.16713" lon="5.85482">
        <ele>784.63</ele>
        <time>2020-10-12T11:30:09.000Z</time>
      </trkpt>
      <trkpt lat="45.16706" lon="5.85418">
        <ele>784.61</ele>
        <time>2020-10-12T11:30:14.000Z</time>
      </trkpt>
      <trkpt lat="45.16693" lon="5.85367">
        <ele>779.88</ele>
        <time>2020-10-12T11:30:19.000Z</time>
      </trkpt>
      <trkpt lat="45.1668" lon="5.85332">
        <ele>781.15</ele>
        <time>2020-10-12T11:30:24.000Z</time>
      </trkpt>
      <trkpt lat="45.16665" lon="5.85297">
        <ele>783.04</ele>
        <time>2020-10-12T11:30:29.000Z</time>
      </trkpt>
      <trkpt lat="45.16653" lon="5.85273">
        <ele>782.99</ele>
        <time>2020-10-12T11:30:34.000Z</time>
      </trkpt>
      <trkpt lat="45.16631" lon="5.85241">
        <ele>785.69</ele>
        <time>2020-10-12T11:30:39.000Z</time>
      </trkpt>
      <trkpt lat="45.16617" lon="5.85213">
        <ele>786.51</ele>
        <time>2020-10-12T11:30:44.000Z</time>
      </trkpt>
      <trkpt lat="45.16599" lon="5.85181">
        <ele>786.01</ele>
        <time>2020-10-12T11:30:49.000Z</time>
      </trkpt>
      <trkpt lat="45.16585" lon="5.85152">
        <ele>784.26</ele>
        <time>2020-10-12T11:30:54.000Z</time>
      </trkpt>
      <trkpt lat="45.16566" lon="5.85119">
        <ele>788.6</ele>
        <time>2020-10-12T11:30:59.000Z</time>
      </trkpt>
      <trkpt lat="45.16552" lon="5.85085">
        <ele>786.79</ele>
        <time>2020-10-12T11:31:04.000Z</time>
      </trkpt>
      <trkpt lat="45.16545" lon="5.85049">
        <ele>786.8</ele>
        <time>2020-10-12T11:31:09.000Z</time>
      </trkpt>
      <trkpt lat="45.16541" lon="5.85006">
        <ele>789.65</ele>
        <time>2020-10-12T11:31:14.000Z</time>
      </trkpt>
      <trkpt lat="45.16534" lon="5.84969">
        <ele>797.05</ele>
        <time>2020-10-12T11:31:19.000Z</time>
      </trkpt>
      <trkpt lat="45.1653" lon="5.84934">
        <ele>801.59</ele>
        <time>2020-10-12T11:31:24.000Z</time>
      </trkpt>
      <trkpt lat="45.16528" lon="5.84896">
        <ele>801.51</ele>
        <time>2020-10-12T11:31:29.000Z</time>
      </trkpt>
      <trkpt lat="45.16523" lon="5.84859">
        <ele>801.92</ele>
        <time>2020-10-12T11:31:34.000Z</time>
      </trkpt>
      <trkpt lat="45.16505" lon="5.84832">
        <ele>797.08</ele>
        <time>2020-10-12T11:31:39.000Z</time>
      </trkpt>
      <trkpt lat="45.16475" lon="5.84837">
        <ele>799.69</ele>
        <time>2020-10-12T11:31:44.000Z</time>
      </trkpt>
      <trkpt lat="45.16446" lon="5.84881">
        <ele>799.48</ele>
        <time>2020-10-12T11:31:49.000Z</time>
      </trkpt>
      <trkpt lat="45.16408" lon="5.84936">
        <ele>797.1</ele>
        <time>2020-10-12T11:31:54.000Z</time>
      </trkpt>
      <trkpt lat="45.16371" lon="5.84985">
        <ele>793.55</ele>
        <time>2020-10-12T11:31:59.000Z</time>
      </trkpt>
      <trkpt lat="45.16324" lon="5.85036">
        <ele>792.37</ele>
        <time>2020-10-12T11:32:04.000Z</time>
      </trkpt>
      <trkpt lat="45.16297" lon="5.85103">
        <ele>789.19</ele>
        <time>2020-10-12T11:32:09.000Z</time>
      </trkpt>
      <trkpt lat="45.16287" lon="5.8518">
        <ele>783.32</ele>
        <time>2020-10-12T11:32:14.000Z</time>
      </trkpt>
      <trkpt lat="45.16235" lon="5.85162">
        <ele>781.89</ele>
        <time>2020-10-12T11:32:19.000Z</time>
      </trkpt>
      <trkpt lat="45.16183" lon="5.85121">
        <ele>782.87</ele>
        <time>2020-10-12T11:32:24.000Z</time>
      </trkpt>
      <trkpt lat="45.16133" lon="5.85081">
        <ele>778.21</ele>
        <time>2020-10-12T11:32:29.000Z</time>
      </trkpt>
      <trkpt lat="45.16093" lon="5.85006">
        <ele>771.49</ele>
        <time>2020-10-12T11:32:34.000Z</time>
      </trkpt>
      <trkpt lat="45.16056" lon="5.84939">
        <ele>767.28</ele>
        <time>2020-10-12T11:32:39.000Z</time>
      </trkpt>
      <trkpt lat="45.15989" lon="5.84924">
        <ele>759.39</ele>
        <time>2020-10-12T11:32:44.000Z</time>
      </trkpt>
      <trkpt lat="45.1592" lon="5.84915">
        <ele>756.03</ele>
        <time>2020-10-12T11:32:49.000Z</time>
      </trkpt>
      <trkpt lat="45.15869" lon="5.8488">
        <ele>747.46</ele>
        <time>2020-10-12T11:32:54.000Z</time>
      </trkpt>
      <trkpt lat="45.15881" lon="5.84816">
        <ele>741.2</ele>
        <time>2020-10-12T11:32:59.000Z</time>
      </trkpt>
      <trkpt lat="45.15915" lon="5.8477">
        <ele>742.15</ele>
        <time>2020-10-12T11:33:04.000Z</time>
      </trkpt>
      <trkpt lat="45.15953" lon="5.84729">
        <ele>738.9</ele>
        <time>2020-10-12T11:33:09.000Z</time>
      </trkpt>
      <trkpt lat="45.15988" lon="5.84674">
        <ele>734.72</ele>
        <time>2020-10-12T11:33:14.000Z</time>
      </trkpt>
      <trkpt lat="45.16032" lon="5.84618">
        <ele>734.01</ele>
        <time>2020-10-12T11:33:19.000Z</time>
      </trkpt>
      <trkpt lat="45.1606" lon="5.84539">
        <ele>729.74</ele>
        <time>2020-10-12T11:33:24.000Z</time>
      </trkpt>
      <trkpt lat="45.16076" lon="5.84458">
        <ele>727.21</ele>
        <time>2020-10-12T11:33:29.000Z</time>
      </trkpt>
      <trkpt lat="45.16109" lon="5.84382">
        <ele>727.55</ele>
        <time>2020-10-12T11:33:34.000Z</time>
      </trkpt>
      <trkpt lat="45.1615" lon="5.84315">
        <ele>723.17</ele>
        <time>2020-10-12T11:33:39.000Z</time>
      </trkpt>
      <trkpt lat="45.16188" lon="5.84248">
        <ele>713.32</ele>
        <time>2020-10-12T11:33:44.000Z</time>
      </trkpt>
      <trkpt lat="45.16226" lon="5.84183">
        <ele>706.84</ele>
        <time>2020-10-12T11:33:49.000Z</time>
      </trkpt>
      <trkpt lat="45.16253" lon="5.8411">
        <ele>704.1</ele>
        <time>2020-10-12T11:33:54.000Z</time>
      </trkpt>
      <trkpt lat="45.16269" lon="5.8403">
        <ele>700.16</ele>
        <time>2020-10-12T11:33:59.000Z</time>
      </trkpt>
      <trkpt lat="45.16299" lon="5.83961">
        <ele>694.52</ele>
        <time>2020-10-12T11:34:04.000Z</time>
      </trkpt>
      <trkpt lat="45.16329" lon="5.83889">
        <ele>694.87</ele>
        <time>2020-10-12T11:34:09.000Z</time>
      </trkpt>
      <trkpt lat="45.16344" lon="5.83815">
        <ele>686.96</ele>
        <time>2020-10-12T11:34:14.000Z</time>
      </trkpt>
      <trkpt lat="45.16357" lon="5.83737">
        <ele>684.81</ele>
        <time>2020-10-12T11:34:19.000Z</time>
      </trkpt>
      <trkpt lat="45.16389" lon="5.83671">
        <ele>679.4</ele>
        <time>2020-10-12T11:34:24.000Z</time>
      </trkpt>
      <trkpt lat="45.16422" lon="5.83602">
        <ele>676.29</ele>
        <time>2020-10-12T11:34:29.000Z</time>
      </trkpt>
      <trkpt lat="45.16437" lon="5.8352">
        <ele>673.67</ele>
        <time>2020-10-12T11:34:34.000Z</time>
      </trkpt>
      <trkpt lat="45.16413" lon="5.83489">
        <ele>662.79</ele>
        <time>2020-10-12T11:34:39.000Z</time>
      </trkpt>
      <trkpt lat="45.1643" lon="5.83465">
        <ele>662.28</ele>
        <time>2020-10-12T11:34:44.000Z</time>
      </trkpt>
      <trkpt lat="45.16453" lon="5.83445">
        <ele>659.25</ele>
        <time>2020-10-12T11:34:49.000Z</time>
      </trkpt>
      <trkpt lat="45.16475" lon="5.83419">
        <ele>660.64</ele>
        <time>2020-10-12T11:34:54.000Z</time>
      </trkpt>
      <trkpt lat="45.165" lon="5.83395">
        <ele>658.97</ele>
        <time>2020-10-12T11:34:59.000Z</time>
      </trkpt>
      <trkpt lat="45.16534" lon="5.83379">
        <ele>663.65</ele>
        <time>2020-10-12T11:35:04.000Z</time>
      </trkpt>
      <trkpt lat="45.1656" lon="5.83397">
        <ele>666.67</ele>
        <time>2020-10-12T11:35:09.000Z</time>
      </trkpt>
      <trkpt lat="45.16584" lon="5.83422">
        <ele>667.02</ele>
        <time>2020-10-12T11:35:14.000Z</time>
      </trkpt>
      <trkpt lat="45.16611" lon="5.83443">
        <ele>668.38</ele>
        <time>2020-10-12T11:35:19.000Z</time>
      </trkpt>
      <trkpt lat="45.1664" lon="5.83438">
        <ele>667.35</ele>
        <time>2020-10-12T11:35:24.000Z</time>
      </trkpt>
      <trkpt lat="45.16642" lon="5.8339">
        <ele>664.84</ele>
        <time>2020-10-12T11:35:29.000Z</time>
      </trkpt>
      <trkpt lat="45.16648" lon="5.83343">
        <ele>665.14</ele>
        <time>2020-10-12T11:35:34.000Z</time>
      </trkpt>
      <trkpt lat="45.16658" lon="5.83296">
        <ele>663.99</ele>
        <time>2020-10-12T11:35:39.000Z</time>
      </trkpt>
      <trkpt lat="45.16677" lon="5.83253">
        <ele>663.98</ele>
        <time>2020-10-12T11:35:44.000Z</time>
      </trkpt>
      <trkpt lat="45.16692" lon="5.83208">
        <ele>666.81</ele>
        <time>2020-10-12T11:35:49.000Z</time>
      </trkpt>
      <trkpt lat="45.16712" lon="5.83167">
        <ele>665.6</ele>
        <time>2020-10-12T11:35:54.000Z</time>
      </trkpt>
      <trkpt lat="45.16734" lon="5.83134">
        <ele>664.32</ele>
        <time>2020-10-12T11:35:59.000Z</time>
      </trkpt>
      <trkpt lat="45.16765" lon="5.83128">
        <ele>667.28</ele>
        <time>2020-10-12T11:36:04.000Z</time>
      </trkpt>
      <trkpt lat="45.1679" lon="5.83124">
        <ele>669.78</ele>
        <time>2020-10-12T11:36:09.000Z</time>
      </trkpt>
      <trkpt lat="45.16808" lon="5.83113">
        <ele>671.43</ele>
        <time>2020-10-12T11:36:14.000Z</time>
      </trkpt>
      <trkpt lat="45.16802" lon="5.83089">
        <ele>669.33</ele>
        <time>2020-10-12T11:36:19.000Z</time>
      </trkpt>
      <trkpt lat="45.16789" lon="5.83061">
        <ele>669.17</ele>
        <time>2020-10-12T11:36:24.000Z</time>
      </trkpt>
      <trkpt lat="45.16784" lon="5.83034">
        <ele>669.35</ele>
        <time>2020-10-12T11:36:29.000Z</time>
      </trkpt>
      <trkpt lat="45.16787" lon="5.83011">
        <ele>669.44</ele>
        <time>2020-10-12T11:36:34.000Z</time>
      </trkpt>
      <trkpt lat="45.16796" lon="5.82993">
        <ele>673.01</ele>
        <time>2020-10-12T11:36:39.000Z</time>
      </trkpt>
      <trkpt lat="45.16804" lon="5.82975">
        <ele>676.83</ele>
        <time>2020-10-12T11:36:44.000Z</time>
      </trkpt>
      <trkpt lat="45.16814" lon="5.82958">
        <ele>676.48</ele>
        <time>2020-10-12T11:36:49.000Z</time>
      </trkpt>
      <trkpt lat="45.16819" lon="5.82938">
        <ele>677.81</ele>
        <time>2020-10-12T11:36:54.000Z</time>
      </trkpt>
      <trkpt lat="45.16825" lon="5.82914">
        <ele>679.32</ele>
        <time>2020-10-12T11:36:59.000Z</time>
      </trkpt>
      <trkpt lat="45.1683" lon="5.82889">
        <ele>676.64</ele>
        <time>2020-10-12T11:37:04.000Z</time>
      </trkpt>
      <trkpt lat="45.16831" lon="5.82862">
        <ele>676.75</ele>
        <time>2020-10-12T11:37:09.000Z</time>
      </trkpt>
      <trkpt lat="45.16832" lon="5.82837">
        <ele>679.42</ele>
        <time>2020-10-12T11:37:14.000Z</time>
      </trkpt>
      <trkpt lat="45.16835" lon="5.82814">
        <ele>680.78</ele>
        <time>2020-10-12T11:37:19.000Z</time>
      </trkpt>
      <trkpt lat="45.16841" lon="5.82789">
        <ele>681.47</ele>
        <time>2020-10-12T11:37:24.000Z</time>
      </trkpt>
      <trkpt lat="45.16845" lon="5.82766">
        <ele>685.24</ele>
        <time>2020-10-12T11:37:29.000Z</time>
      </trkpt>
      <trkpt lat="45.16846" lon="5.82742">
        <ele>686.47</ele>
        <time>2020-10-12T11:37:34.000Z</time>
      </trkpt>
      <trkpt lat="45.16845" lon="5.82718">
        <ele>690.59</ele>
        <time>2020-10-12T11:37:39.000Z</time>
      </trkpt>
      <trkpt lat="45.16842" lon="5.82695">
        <ele>691.6</ele>
        <time>2020-10-12T11:37:44.000Z</time>
      </trkpt>
      <trkpt lat="45.16836" lon="5.82669">
        <ele>693.6</ele>
        <time>2020-10-12T11:37:49.000Z</time>
      </trkpt>
      <trkpt lat="45.16833" lon="5.82639">
        <ele>695.18</ele>
        <time>2020-10-12T11:37:54.000Z</time>
      </trkpt>
      <trkpt lat="45.1683" lon="5.82617">
        <ele>697.76</ele>
        <time>2020-10-12T11:37:59.000Z</time>
      </trkpt>
      <trkpt lat="45.16825" lon="5.82585">
        <ele>700.75</ele>
        <time>2020-10-12T11:38:04.000Z</time>
      </trkpt>
      <trkpt lat="45.16824" lon="5.82558">
        <ele>703.02</ele>
        <time>2020-10-12T11:38:09.000Z</time>
      </trkpt>
      <trkpt lat="45.16829" lon="5.82535">
        <ele>704.59</ele>
        <time>2020-10-12T11:38:14.000Z</time>
      </trkpt>
      <trkpt lat="45.16828" lon="5.82509">
        <ele>707.92</ele>
        <time>2020-10-12T11:38:19.000Z</time>
      </trkpt>
      <trkpt lat="45.16823" lon="5.82484">
        <ele>706.08</ele>
        <time>2020-10-12T11:38:24.000Z</time>
      </trkpt>
      <trkpt lat="45.16816" lon="5.82462">
        <ele>708.07</ele>
        <time>2020-10-12T11:38:29.000Z</time>
      </trkpt>
      <trkpt lat="45.16802" lon="5.82442">
        <ele>711.78</ele>
        <time>2020-10-12T11:38:34.000Z</time>
      </trkpt>
      <trkpt lat="45.16787" lon="5.82426">
        <ele>709.02</ele>
        <time>2020-10-12T11:38:39.000Z</time>
      </trkpt>
      <trkpt lat="45.16774" lon="5.82406">
        <ele>711.89</ele>
        <time>2020-10-12T11:38:44.000Z</time>
      </trkpt>
      <trkpt lat="45.16765" lon="5.82383">
        <ele>711.36</ele>
        <time>2020-10-12T11:38:49.000Z</time>
      </trkpt>
      <trkpt lat="45.16774" lon="5.82364">
        <ele>711.81</ele>
        <time>2020-10-12T11:38:54.000Z</time>
      </trkpt>
      <trkpt lat="45.16795" lon="5.82368">
        <ele>714.02</ele>
        <time>2020-10-12T11:38:59.000Z</time>
      </trkpt>
      <trkpt lat="45.16818" lon="5.82376">
        <ele>716.88</ele>
        <time>2020-10-12T11:39:04.000Z</time>
      </trkpt>
      <trkpt lat="45.16848" lon="5.82379">
        <ele>720.53</ele>
        <time>2020-10-12T11:39:09.000Z</time>
      </trkpt>
      <trkpt lat="45.16888" lon="5.82389">
        <ele>723.33</ele>
        <time>2020-10-12T11:39:14.000Z</time>
      </trkpt>
      <trkpt lat="45.16937" lon="5.82413">
        <ele>722.59</ele>
        <time>2020-10-12T11:39:19.000Z</time>
      </trkpt>
      <trkpt lat="45.16997" lon="5.82417">
        <ele>724.91</ele>
        <time>2020-10-12T11:39:24.000Z</time>
      </trkpt>
      <trkpt lat="45.17045" lon="5.8236">
        <ele>720.84</ele>
        <time>2020-10-12T11:39:29.000Z</time>
      </trkpt>
      <trkpt lat="45.17064" lon="5.82289">
        <ele>713.93</ele>
        <time>2020-10-12T11:39:34.000Z</time>
      </trkpt>
      <trkpt lat="45.17084" lon="5.82228">
        <ele>707.5</ele>
        <time>2020-10-12T11:39:39.000Z</time>
      </trkpt>
      <trkpt lat="45.17096" lon="5.82151">
        <ele>705.28</ele>
        <time>2020-10-12T11:39:44.000Z</time>
      </trkpt>
      <trkpt lat="45.17073" lon="5.82079">
        <ele>698.92</ele>
        <time>2020-10-12T11:39:49.000Z</time>
      </trkpt>
      <trkpt lat="45.17053" lon="5.82011">
        <ele>692.52</ele>
        <time>2020-10-12T11:39:54.000Z</time>
      </trkpt>
      <trkpt lat="45.1703" lon="5.81942">
        <ele>686.34</ele>
        <time>2020-10-12T11:39:59.000Z</time>
      </trkpt>
      <trkpt lat="45.17033" lon="5.81887">
        <ele>687.15</ele>
        <time>2020-10-12T11:40:04.000Z</time>
      </trkpt>
      <trkpt lat="45.17048" lon="5.81829">
        <ele>684.64</ele>
        <time>2020-10-12T11:40:09.000Z</time>
      </trkpt>
      <trkpt lat="45.17088" lon="5.81783">
        <ele>680.04</ele>
        <time>2020-10-12T11:40:14.000Z</time>
      </trkpt>
      <trkpt lat="45.17118" lon="5.81714">
        <ele>679.34</ele>
        <time>2020-10-12T11:40:19.000Z</time>
      </trkpt>
      <trkpt lat="45.17147" lon="5.81678">
        <ele>675.5</ele>
        <time>2020-10-12T11:40:24.000Z</time>
      </trkpt>
      <trkpt lat="45.17198" lon="5.81668">
        <ele>661.91</ele>
        <time>2020-10-12T11:40:29.000Z</time>
      </trkpt>
      <trkpt lat="45.17196" lon="5.81604">
        <ele>656.87</ele>
        <time>2020-10-12T11:40:34.000Z</time>
      </trkpt>
      <trkpt lat="45.17172" lon="5.81551">
        <ele>654.18</ele>
        <time>2020-10-12T11:40:39.000Z</time>
      </trkpt>
      <trkpt lat="45.17153" lon="5.81505">
        <ele>652.82</ele>
        <time>2020-10-12T11:40:44.000Z</time>
      </trkpt>
      <trkpt lat="45.17129" lon="5.81461">
        <ele>649.34</ele>
        <time>2020-10-12T11:40:49.000Z</time>
      </trkpt>
      <trkpt lat="45.17102" lon="5.81424">
        <ele>647.45</ele>
        <time>2020-10-12T11:40:54.000Z</time>
      </trkpt>
      <trkpt lat="45.17067" lon="5.81399">
        <ele>646.76</ele>
        <time>2020-10-12T11:40:59.000Z</time>
      </trkpt>
      <trkpt lat="45.17031" lon="5.8138">
        <ele>645.97</ele>
        <time>2020-10-12T11:41:04.000Z</time>
      </trkpt>
      <trkpt lat="45.16998" lon="5.81351">
        <ele>646.83</ele>
        <time>2020-10-12T11:41:09.000Z</time>
      </trkpt>
      <trkpt lat="45.16992" lon="5.81306">
        <ele>645.06</ele>
        <time>2020-10-12T11:41:14.000Z</time>
      </trkpt>
      <trkpt lat="45.16994" lon="5.81245">
        <ele>646.35</ele>
        <time>2020-10-12T11:41:19.000Z</time>
      </trkpt>
      <trkpt lat="45.16986" lon="5.81176">
        <ele>645.1</ele>
        <time>2020-10-12T11:41:24.000Z</time>
      </trkpt>
      <trkpt lat="45.16977" lon="5.81109">
        <ele>642.1</ele>
        <time>2020-10-12T11:41:29.000Z</time>
      </trkpt>
      <trkpt lat="45.17018" lon="5.81078">
        <ele>640.56</ele>
        <time>2020-10-12T11:41:34.000Z</time>
      </trkpt>
      <trkpt lat="45.17073" lon="5.81057">
        <ele>643.98</ele>
        <time>2020-10-12T11:41:39.000Z</time>
      </trkpt>
      <trkpt lat="45.17131" lon="5.81064">
        <ele>643.71</ele>
        <time>2020-10-12T11:41:44.000Z</time>
      </trkpt>
      <trkpt lat="45.17191" lon="5.81065">
        <ele>638.68</ele>
        <time>2020-10-12T11:41:49.000Z</time>
      </trkpt>
      <trkpt lat="45.17249" lon="5.81068">
        <ele>629.4</ele>
        <time>2020-10-12T11:41:54.000Z</time>
      </trkpt>
      <trkpt lat="45.17292" lon="5.81082">
        <ele>628.94</ele>
        <time>2020-10-12T11:41:59.000Z</time>
      </trkpt>
      <trkpt lat="45.17272" lon="5.81048">
        <ele>627.89</ele>
        <time>2020-10-12T11:42:04.000Z</time>
      </trkpt>
      <trkpt lat="45.17229" lon="5.8101">
        <ele>624.59</ele>
        <time>2020-10-12T11:42:09.000Z</time>
      </trkpt>
      <trkpt lat="45.17185" lon="5.80964">
        <ele>620.14</ele>
        <time>2020-10-12T11:42:14.000Z</time>
      </trkpt>
      <trkpt lat="45.17121" lon="5.80923">
        <ele>616.62</ele>
        <time>2020-10-12T11:42:19.000Z</time>
      </trkpt>
      <trkpt lat="45.17058" lon="5.80887">
        <ele>616.18</ele>
        <time>2020-10-12T11:42:24.000Z</time>
      </trkpt>
      <trkpt lat="45.17" lon="5.80845">
        <ele>613.42</ele>
        <time>2020-10-12T11:42:29.000Z</time>
      </trkpt>
      <trkpt lat="45.16945" lon="5.80815">
        <ele>592.91</ele>
        <time>2020-10-12T11:42:34.000Z</time>
      </trkpt>
      <trkpt lat="45.16887" lon="5.80815">
        <ele>588</ele>
        <time>2020-10-12T11:42:39.000Z</time>
      </trkpt>
      <trkpt lat="45.16882" lon="5.80787">
        <ele>581.85</ele>
        <time>2020-10-12T11:42:44.000Z</time>
      </trkpt>
      <trkpt lat="45.16933" lon="5.80787">
        <ele>577.1</ele>
        <time>2020-10-12T11:42:49.000Z</time>
      </trkpt>
      <trkpt lat="45.16992" lon="5.80776">
        <ele>574.63</ele>
        <time>2020-10-12T11:42:54.000Z</time>
      </trkpt>
      <trkpt lat="45.17049" lon="5.80755">
        <ele>576.01</ele>
        <time>2020-10-12T11:42:59.000Z</time>
      </trkpt>
      <trkpt lat="45.17103" lon="5.80703">
        <ele>574.75</ele>
        <time>2020-10-12T11:43:04.000Z</time>
      </trkpt>
      <trkpt lat="45.17124" lon="5.8065">
        <ele>566.68</ele>
        <time>2020-10-12T11:43:09.000Z</time>
      </trkpt>
      <trkpt lat="45.17103" lon="5.80574">
        <ele>557.14</ele>
        <time>2020-10-12T11:43:14.000Z</time>
      </trkpt>
      <trkpt lat="45.17134" lon="5.80513">
        <ele>550.96</ele>
        <time>2020-10-12T11:43:19.000Z</time>
      </trkpt>
      <trkpt lat="45.17175" lon="5.80482">
        <ele>548.65</ele>
        <time>2020-10-12T11:43:24.000Z</time>
      </trkpt>
      <trkpt lat="45.17204" lon="5.80488">
        <ele>546.26</ele>
        <time>2020-10-12T11:43:29.000Z</time>
      </trkpt>
      <trkpt lat="45.17221" lon="5.80485">
        <ele>546.76</ele>
        <time>2020-10-12T11:43:34.000Z</time>
      </trkpt>
      <trkpt lat="45.17237" lon="5.80466">
        <ele>545.94</ele>
        <time>2020-10-12T11:43:39.000Z</time>
      </trkpt>
      <trkpt lat="45.17259" lon="5.80454">
        <ele>544.78</ele>
        <time>2020-10-12T11:43:44.000Z</time>
      </trkpt>
      <trkpt lat="45.17281" lon="5.80459">
        <ele>547.31</ele>
        <time>2020-10-12T11:43:49.000Z</time>
      </trkpt>
      <trkpt lat="45.17306" lon="5.80481">
        <ele>551.87</ele>
        <time>2020-10-12T11:43:54.000Z</time>
      </trkpt>
      <trkpt lat="45.17326" lon="5.80508">
        <ele>550.79</ele>
        <time>2020-10-12T11:43:59.000Z</time>
      </trkpt>
      <trkpt lat="45.17351" lon="5.80538">
        <ele>555.69</ele>
        <time>2020-10-12T11:44:04.000Z</time>
      </trkpt>
      <trkpt lat="45.17376" lon="5.80571">
        <ele>550.9</ele>
        <time>2020-10-12T11:44:09.000Z</time>
      </trkpt>
      <trkpt lat="45.17404" lon="5.80605">
        <ele>555.62</ele>
        <time>2020-10-12T11:44:14.000Z</time>
      </trkpt>
      <trkpt lat="45.17423" lon="5.8064">
        <ele>552.63</ele>
        <time>2020-10-12T11:44:19.000Z</time>
      </trkpt>
      <trkpt lat="45.17448" lon="5.80666">
        <ele>551.78</ele>
        <time>2020-10-12T11:44:24.000Z</time>
      </trkpt>
      <trkpt lat="45.1747" lon="5.80682">
        <ele>552.88</ele>
        <time>2020-10-12T11:44:29.000Z</time>
      </trkpt>
      <trkpt lat="45.17484" lon="5.80694">
        <ele>557.06</ele>
        <time>2020-10-12T11:44:34.000Z</time>
      </trkpt>
      <trkpt lat="45.17503" lon="5.80713">
        <ele>559.08</ele>
        <time>2020-10-12T11:44:39.000Z</time>
      </trkpt>
      <trkpt lat="45.17512" lon="5.80727">
        <ele>563.48</ele>
        <time>2020-10-12T11:44:44.000Z</time>
      </trkpt>
      <trkpt lat="45.17519" lon="5.80744">
        <ele>562.34</ele>
        <time>2020-10-12T11:44:49.000Z</time>
      </trkpt>
      <trkpt lat="45.17532" lon="5.80759">
        <ele>562.16</ele>
        <time>2020-10-12T11:44:54.000Z</time>
      </trkpt>
      <trkpt lat="45.17546" lon="5.80774">
        <ele>564.25</ele>
        <time>2020-10-12T11:44:59.000Z</time>
      </trkpt>
      <trkpt lat="45.1756" lon="5.80784">
        <ele>565.08</ele>
        <time>2020-10-12T11:45:04.000Z</time>
      </trkpt>
      <trkpt lat="45.17577" lon="5.80803">
        <ele>563.07</ele>
        <time>2020-10-12T11:45:09.000Z</time>
      </trkpt>
      <trkpt lat="45.17583" lon="5.80821">
        <ele>567.93</ele>
        <time>2020-10-12T11:45:14.000Z</time>
      </trkpt>
      <trkpt lat="45.17582" lon="5.80847">
        <ele>568.06</ele>
        <time>2020-10-12T11:45:19.000Z</time>
      </trkpt>
      <trkpt lat="45.17586" lon="5.80869">
        <ele>570</ele>
        <time>2020-10-12T11:45:24.000Z</time>
      </trkpt>
      <trkpt lat="45.17586" lon="5.80893">
        <ele>566.79</ele>
        <time>2020-10-12T11:45:29.000Z</time>
      </trkpt>
      <trkpt lat="45.1759" lon="5.80916">
        <ele>561.3</ele>
        <time>2020-10-12T11:45:34.000Z</time>
      </trkpt>
      <trkpt lat="45.17598" lon="5.8094">
        <ele>562.64</ele>
        <time>2020-10-12T11:45:39.000Z</time>
      </trkpt>
      <trkpt lat="45.17609" lon="5.80963">
        <ele>563.72</ele>
        <time>2020-10-12T11:45:44.000Z</time>
      </trkpt>
      <trkpt lat="45.17617" lon="5.80987">
        <ele>568.16</ele>
        <time>2020-10-12T11:45:49.000Z</time>
      </trkpt>
      <trkpt lat="45.17622" lon="5.81014">
        <ele>569.51</ele>
        <time>2020-10-12T11:45:54.000Z</time>
      </trkpt>
      <trkpt lat="45.17628" lon="5.81038">
        <ele>568.31</ele>
        <time>2020-10-12T11:45:59.000Z</time>
      </trkpt>
      <trkpt lat="45.17639" lon="5.81062">
        <ele>569.65</ele>
        <time>2020-10-12T11:46:04.000Z</time>
      </trkpt>
      <trkpt lat="45.17651" lon="5.81084">
        <ele>569.36</ele>
        <time>2020-10-12T11:46:09.000Z</time>
      </trkpt>
      <trkpt lat="45.17665" lon="5.81101">
        <ele>567.7</ele>
        <time>2020-10-12T11:46:14.000Z</time>
      </trkpt>
      <trkpt lat="45.17675" lon="5.81123">
        <ele>565.37</ele>
        <time>2020-10-12T11:46:19.000Z</time>
      </trkpt>
      <trkpt lat="45.17691" lon="5.81147">
        <ele>565.39</ele>
        <time>2020-10-12T11:46:24.000Z</time>
      </trkpt>
      <trkpt lat="45.17711" lon="5.81171">
        <ele>566.45</ele>
        <time>2020-10-12T11:46:29.000Z</time>
      </trkpt>
      <trkpt lat="45.17731" lon="5.81194">
        <ele>565.48</ele>
        <time>2020-10-12T11:46:34.000Z</time>
      </trkpt>
      <trkpt lat="45.17749" lon="5.81218">
        <ele>565.22</ele>
        <time>2020-10-12T11:46:39.000Z</time>
      </trkpt>
      <trkpt lat="45.17767" lon="5.81245">
        <ele>565.31</ele>
        <time>2020-10-12T11:46:44.000Z</time>
      </trkpt>
      <trkpt lat="45.17781" lon="5.81277">
        <ele>563.98</ele>
        <time>2020-10-12T11:46:49.000Z</time>
      </trkpt>
      <trkpt lat="45.17796" lon="5.8132">
        <ele>562.35</ele>
        <time>2020-10-12T11:46:54.000Z</time>
      </trkpt>
      <trkpt lat="45.17816" lon="5.81372">
        <ele>562.72</ele>
        <time>2020-10-12T11:46:59.000Z</time>
      </trkpt>
      <trkpt lat="45.17829" lon="5.81432">
        <ele>561.77</ele>
        <time>2020-10-12T11:47:04.000Z</time>
      </trkpt>
      <trkpt lat="45.17845" lon="5.81479">
        <ele>558.37</ele>
        <time>2020-10-12T11:47:09.000Z</time>
      </trkpt>
      <trkpt lat="45.17869" lon="5.81528">
        <ele>553.98</ele>
        <time>2020-10-12T11:47:14.000Z</time>
      </trkpt>
      <trkpt lat="45.17896" lon="5.81578">
        <ele>554.62</ele>
        <time>2020-10-12T11:47:19.000Z</time>
      </trkpt>
      <trkpt lat="45.17901" lon="5.81636">
        <ele>553.78</ele>
        <time>2020-10-12T11:47:24.000Z</time>
      </trkpt>
      <trkpt lat="45.17901" lon="5.81677">
        <ele>552.51</ele>
        <time>2020-10-12T11:47:29.000Z</time>
      </trkpt>
      <trkpt lat="45.17897" lon="5.81705">
        <ele>552.31</ele>
        <time>2020-10-12T11:47:34.000Z</time>
      </trkpt>
      <trkpt lat="45.17907" lon="5.81737">
        <ele>551.33</ele>
        <time>2020-10-12T11:47:39.000Z</time>
      </trkpt>
      <trkpt lat="45.17925" lon="5.81754">
        <ele>551.09</ele>
        <time>2020-10-12T11:47:44.000Z</time>
      </trkpt>
      <trkpt lat="45.17951" lon="5.81755">
        <ele>556.07</ele>
        <time>2020-10-12T11:47:49.000Z</time>
      </trkpt>
      <trkpt lat="45.17975" lon="5.81767">
        <ele>556.87</ele>
        <time>2020-10-12T11:47:54.000Z</time>
      </trkpt>
      <trkpt lat="45.18002" lon="5.81795">
        <ele>558.38</ele>
        <time>2020-10-12T11:47:59.000Z</time>
      </trkpt>
      <trkpt lat="45.18026" lon="5.81821">
        <ele>560</ele>
        <time>2020-10-12T11:48:04.000Z</time>
      </trkpt>
      <trkpt lat="45.18053" lon="5.81847">
        <ele>560.91</ele>
        <time>2020-10-12T11:48:09.000Z</time>
      </trkpt>
      <trkpt lat="45.18086" lon="5.81854">
        <ele>558.34</ele>
        <time>2020-10-12T11:48:14.000Z</time>
      </trkpt>
      <trkpt lat="45.18123" lon="5.81891">
        <ele>554.79</ele>
        <time>2020-10-12T11:48:19.000Z</time>
      </trkpt>
      <trkpt lat="45.18167" lon="5.8193">
        <ele>550.04</ele>
        <time>2020-10-12T11:48:24.000Z</time>
      </trkpt>
      <trkpt lat="45.18205" lon="5.8195">
        <ele>550.77</ele>
        <time>2020-10-12T11:48:29.000Z</time>
      </trkpt>
      <trkpt lat="45.18249" lon="5.81983">
        <ele>542.7</ele>
        <time>2020-10-12T11:48:34.000Z</time>
      </trkpt>
      <trkpt lat="45.18286" lon="5.8201">
        <ele>533.41</ele>
        <time>2020-10-12T11:48:39.000Z</time>
      </trkpt>
      <trkpt lat="45.18302" lon="5.81988">
        <ele>528.12</ele>
        <time>2020-10-12T11:48:44.000Z</time>
      </trkpt>
      <trkpt lat="45.18335" lon="5.8199">
        <ele>524.37</ele>
        <time>2020-10-12T11:48:49.000Z</time>
      </trkpt>
      <trkpt lat="45.18346" lon="5.82043">
        <ele>517.41</ele>
        <time>2020-10-12T11:48:54.000Z</time>
      </trkpt>
      <trkpt lat="45.18346" lon="5.82115">
        <ele>511.84</ele>
        <time>2020-10-12T11:48:59.000Z</time>
      </trkpt>
      <trkpt lat="45.18353" lon="5.82185">
        <ele>506</ele>
        <time>2020-10-12T11:49:04.000Z</time>
      </trkpt>
      <trkpt lat="45.18371" lon="5.82243">
        <ele>498.69</ele>
        <time>2020-10-12T11:49:09.000Z</time>
      </trkpt>
      <trkpt lat="45.18398" lon="5.823">
        <ele>496.91</ele>
        <time>2020-10-12T11:49:14.000Z</time>
      </trkpt>
      <trkpt lat="45.18417" lon="5.82345">
        <ele>497</ele>
        <time>2020-10-12T11:49:19.000Z</time>
      </trkpt>
      <trkpt lat="45.18438" lon="5.82341">
        <ele>495.92</ele>
        <time>2020-10-12T11:49:24.000Z</time>
      </trkpt>
      <trkpt lat="45.18421" lon="5.8229">
        <ele>492.25</ele>
        <time>2020-10-12T11:49:29.000Z</time>
      </trkpt>
      <trkpt lat="45.18406" lon="5.82244">
        <ele>487.1</ele>
        <time>2020-10-12T11:49:34.000Z</time>
      </trkpt>
      <trkpt lat="45.18414" lon="5.82187">
        <ele>480.55</ele>
        <time>2020-10-12T11:49:39.000Z</time>
      </trkpt>
      <trkpt lat="45.18434" lon="5.82144">
        <ele>473.55</ele>
        <time>2020-10-12T11:49:44.000Z</time>
      </trkpt>
      <trkpt lat="45.18471" lon="5.82151">
        <ele>470.6</ele>
        <time>2020-10-12T11:49:49.000Z</time>
      </trkpt>
      <trkpt lat="45.18511" lon="5.82172">
        <ele>466.68</ele>
        <time>2020-10-12T11:49:54.000Z</time>
      </trkpt>
      <trkpt lat="45.18535" lon="5.82197">
        <ele>467.68</ele>
        <time>2020-10-12T11:49:59.000Z</time>
      </trkpt>
      <trkpt lat="45.18534" lon="5.82244">
        <ele>463.78</ele>
        <time>2020-10-12T11:50:04.000Z</time>
      </trkpt>
      <trkpt lat="45.18528" lon="5.82288">
        <ele>457.57</ele>
        <time>2020-10-12T11:50:09.000Z</time>
      </trkpt>
      <trkpt lat="45.1852" lon="5.82334">
        <ele>452.59</ele>
        <time>2020-10-12T11:50:14.000Z</time>
      </trkpt>
      <trkpt lat="45.185" lon="5.82363">
        <ele>456.31</ele>
        <time>2020-10-12T11:50:19.000Z</time>
      </trkpt>
      <trkpt lat="45.18476" lon="5.82399">
        <ele>455.37</ele>
        <time>2020-10-12T11:50:24.000Z</time>
      </trkpt>
      <trkpt lat="45.18452" lon="5.82429">
        <ele>454.3</ele>
        <time>2020-10-12T11:50:29.000Z</time>
      </trkpt>
      <trkpt lat="45.18442" lon="5.82488">
        <ele>452.9</ele>
        <time>2020-10-12T11:50:34.000Z</time>
      </trkpt>
      <trkpt lat="45.18427" lon="5.82542">
        <ele>455.36</ele>
        <time>2020-10-12T11:50:39.000Z</time>
      </trkpt>
      <trkpt lat="45.18407" lon="5.82634">
        <ele>454.38</ele>
        <time>2020-10-12T11:50:49.000Z</time>
      </trkpt>
      <trkpt lat="45.18435" lon="5.8262">
        <ele>456.93</ele>
        <time>2020-10-12T11:50:54.000Z</time>
      </trkpt>
      <trkpt lat="45.18454" lon="5.82595">
        <ele>454.39</ele>
        <time>2020-10-12T11:50:59.000Z</time>
      </trkpt>
      <trkpt lat="45.18475" lon="5.82579">
        <ele>455.11</ele>
        <time>2020-10-12T11:51:04.000Z</time>
      </trkpt>
      <trkpt lat="45.18492" lon="5.82557">
        <ele>459.02</ele>
        <time>2020-10-12T11:51:09.000Z</time>
      </trkpt>
      <trkpt lat="45.18516" lon="5.82533">
        <ele>463.5</ele>
        <time>2020-10-12T11:51:14.000Z</time>
      </trkpt>
      <trkpt lat="45.18538" lon="5.8252">
        <ele>466.31</ele>
        <time>2020-10-12T11:51:19.000Z</time>
      </trkpt>
      <trkpt lat="45.18557" lon="5.82529">
        <ele>461.38</ele>
        <time>2020-10-12T11:51:24.000Z</time>
      </trkpt>
      <trkpt lat="45.18576" lon="5.82547">
        <ele>462.21</ele>
        <time>2020-10-12T11:51:29.000Z</time>
      </trkpt>
      <trkpt lat="45.18597" lon="5.82566">
        <ele>468.17</ele>
        <time>2020-10-12T11:51:34.000Z</time>
      </trkpt>
      <trkpt lat="45.18617" lon="5.8258">
        <ele>470.54</ele>
        <time>2020-10-12T11:51:39.000Z</time>
      </trkpt>
      <trkpt lat="45.18635" lon="5.82605">
        <ele>474.61</ele>
        <time>2020-10-12T11:51:44.000Z</time>
      </trkpt>
      <trkpt lat="45.1865" lon="5.82633">
        <ele>478.77</ele>
        <time>2020-10-12T11:51:49.000Z</time>
      </trkpt>
      <trkpt lat="45.18668" lon="5.82655">
        <ele>478.81</ele>
        <time>2020-10-12T11:51:54.000Z</time>
      </trkpt>
      <trkpt lat="45.18688" lon="5.82665">
        <ele>477.61</ele>
        <time>2020-10-12T11:51:59.000Z</time>
      </trkpt>
      <trkpt lat="45.1871" lon="5.82667">
        <ele>473.91</ele>
        <time>2020-10-12T11:52:04.000Z</time>
      </trkpt>
      <trkpt lat="45.18731" lon="5.82666">
        <ele>473.73</ele>
        <time>2020-10-12T11:52:09.000Z</time>
      </trkpt>
      <trkpt lat="45.18754" lon="5.8266">
        <ele>480.54</ele>
        <time>2020-10-12T11:52:14.000Z</time>
      </trkpt>
      <trkpt lat="45.18778" lon="5.8266">
        <ele>476.6</ele>
        <time>2020-10-12T11:52:19.000Z</time>
      </trkpt>
      <trkpt lat="45.18801" lon="5.82684">
        <ele>477.97</ele>
        <time>2020-10-12T11:52:24.000Z</time>
      </trkpt>
      <trkpt lat="45.18817" lon="5.82712">
        <ele>481.04</ele>
        <time>2020-10-12T11:52:29.000Z</time>
      </trkpt>
      <trkpt lat="45.18836" lon="5.82729">
        <ele>484.36</ele>
        <time>2020-10-12T11:52:34.000Z</time>
      </trkpt>
      <trkpt lat="45.18846" lon="5.82758">
        <ele>483.98</ele>
        <time>2020-10-12T11:52:39.000Z</time>
      </trkpt>
      <trkpt lat="45.18856" lon="5.82787">
        <ele>487.21</ele>
        <time>2020-10-12T11:52:44.000Z</time>
      </trkpt>
      <trkpt lat="45.18864" lon="5.82819">
        <ele>487.58</ele>
        <time>2020-10-12T11:52:49.000Z</time>
      </trkpt>
      <trkpt lat="45.18873" lon="5.82853">
        <ele>484.81</ele>
        <time>2020-10-12T11:52:54.000Z</time>
      </trkpt>
      <trkpt lat="45.18884" lon="5.82886">
        <ele>486.12</ele>
        <time>2020-10-12T11:52:59.000Z</time>
      </trkpt>
      <trkpt lat="45.18889" lon="5.82915">
        <ele>487.82</ele>
        <time>2020-10-12T11:53:04.000Z</time>
      </trkpt>
      <trkpt lat="45.18896" lon="5.82947">
        <ele>485.86</ele>
        <time>2020-10-12T11:53:09.000Z</time>
      </trkpt>
      <trkpt lat="45.1889" lon="5.82981">
        <ele>486.78</ele>
        <time>2020-10-12T11:53:14.000Z</time>
      </trkpt>
      <trkpt lat="45.18878" lon="5.83013">
        <ele>483.47</ele>
        <time>2020-10-12T11:53:19.000Z</time>
      </trkpt>
      <trkpt lat="45.18868" lon="5.83046">
        <ele>483.66</ele>
        <time>2020-10-12T11:53:24.000Z</time>
      </trkpt>
      <trkpt lat="45.18868" lon="5.8308">
        <ele>487.67</ele>
        <time>2020-10-12T11:53:29.000Z</time>
      </trkpt>
      <trkpt lat="45.18871" lon="5.8311">
        <ele>490.56</ele>
        <time>2020-10-12T11:53:34.000Z</time>
      </trkpt>
      <trkpt lat="45.18873" lon="5.83143">
        <ele>495.83</ele>
        <time>2020-10-12T11:53:39.000Z</time>
      </trkpt>
      <trkpt lat="45.18866" lon="5.83176">
        <ele>500.81</ele>
        <time>2020-10-12T11:53:44.000Z</time>
      </trkpt>
      <trkpt lat="45.18852" lon="5.83204">
        <ele>500.99</ele>
        <time>2020-10-12T11:53:49.000Z</time>
      </trkpt>
      <trkpt lat="45.18842" lon="5.83234">
        <ele>503.76</ele>
        <time>2020-10-12T11:53:54.000Z</time>
      </trkpt>
      <trkpt lat="45.18825" lon="5.8326">
        <ele>506.88</ele>
        <time>2020-10-12T11:53:59.000Z</time>
      </trkpt>
      <trkpt lat="45.18811" lon="5.83285">
        <ele>503.63</ele>
        <time>2020-10-12T11:54:04.000Z</time>
      </trkpt>
      <trkpt lat="45.1881" lon="5.83318">
        <ele>505.67</ele>
        <time>2020-10-12T11:54:09.000Z</time>
      </trkpt>
      <trkpt lat="45.18815" lon="5.83351">
        <ele>508.33</ele>
        <time>2020-10-12T11:54:14.000Z</time>
      </trkpt>
      <trkpt lat="45.18809" lon="5.8338">
        <ele>510.56</ele>
        <time>2020-10-12T11:54:19.000Z</time>
      </trkpt>
      <trkpt lat="45.18792" lon="5.83405">
        <ele>510.39</ele>
        <time>2020-10-12T11:54:24.000Z</time>
      </trkpt>
      <trkpt lat="45.18771" lon="5.83421">
        <ele>513.93</ele>
        <time>2020-10-12T11:54:29.000Z</time>
      </trkpt>
      <trkpt lat="45.1875" lon="5.83439">
        <ele>514.08</ele>
        <time>2020-10-12T11:54:34.000Z</time>
      </trkpt>
      <trkpt lat="45.18728" lon="5.83454">
        <ele>514.26</ele>
        <time>2020-10-12T11:54:39.000Z</time>
      </trkpt>
      <trkpt lat="45.18724" lon="5.83489">
        <ele>517</ele>
        <time>2020-10-12T11:54:44.000Z</time>
      </trkpt>
      <trkpt lat="45.18721" lon="5.83524">
        <ele>518.17</ele>
        <time>2020-10-12T11:54:49.000Z</time>
      </trkpt>
      <trkpt lat="45.18713" lon="5.83551">
        <ele>522.65</ele>
        <time>2020-10-12T11:54:54.000Z</time>
      </trkpt>
      <trkpt lat="45.1869" lon="5.83575">
        <ele>520.38</ele>
        <time>2020-10-12T11:54:59.000Z</time>
      </trkpt>
      <trkpt lat="45.18675" lon="5.83618">
        <ele>521.71</ele>
        <time>2020-10-12T11:55:04.000Z</time>
      </trkpt>
      <trkpt lat="45.18705" lon="5.83637">
        <ele>527.43</ele>
        <time>2020-10-12T11:55:09.000Z</time>
      </trkpt>
      <trkpt lat="45.18737" lon="5.83634">
        <ele>531.35</ele>
        <time>2020-10-12T11:55:14.000Z</time>
      </trkpt>
      <trkpt lat="45.18767" lon="5.83625">
        <ele>533.86</ele>
        <time>2020-10-12T11:55:19.000Z</time>
      </trkpt>
      <trkpt lat="45.1879" lon="5.83644">
        <ele>538.41</ele>
        <time>2020-10-12T11:55:24.000Z</time>
      </trkpt>
      <trkpt lat="45.18814" lon="5.83666">
        <ele>543.29</ele>
        <time>2020-10-12T11:55:29.000Z</time>
      </trkpt>
      <trkpt lat="45.18846" lon="5.83666">
        <ele>549.22</ele>
        <time>2020-10-12T11:55:34.000Z</time>
      </trkpt>
      <trkpt lat="45.18873" lon="5.83665">
        <ele>554.29</ele>
        <time>2020-10-12T11:55:39.000Z</time>
      </trkpt>
      <trkpt lat="45.18901" lon="5.8366">
        <ele>556.3</ele>
        <time>2020-10-12T11:55:44.000Z</time>
      </trkpt>
      <trkpt lat="45.18926" lon="5.83666">
        <ele>555.31</ele>
        <time>2020-10-12T11:55:49.000Z</time>
      </trkpt>
      <trkpt lat="45.18937" lon="5.83702">
        <ele>549.48</ele>
        <time>2020-10-12T11:55:54.000Z</time>
      </trkpt>
      <trkpt lat="45.1895" lon="5.83745">
        <ele>547.84</ele>
        <time>2020-10-12T11:55:59.000Z</time>
      </trkpt>
      <trkpt lat="45.18968" lon="5.83775">
        <ele>545.83</ele>
        <time>2020-10-12T11:56:04.000Z</time>
      </trkpt>
      <trkpt lat="45.18986" lon="5.83807">
        <ele>540.38</ele>
        <time>2020-10-12T11:56:09.000Z</time>
      </trkpt>
      <trkpt lat="45.18997" lon="5.83838">
        <ele>537.59</ele>
        <time>2020-10-12T11:56:14.000Z</time>
      </trkpt>
      <trkpt lat="45.19003" lon="5.83863">
        <ele>538.17</ele>
        <time>2020-10-12T11:56:19.000Z</time>
      </trkpt>
      <trkpt lat="45.19004" lon="5.83888">
        <ele>540.95</ele>
        <time>2020-10-12T11:56:24.000Z</time>
      </trkpt>
      <trkpt lat="45.19007" lon="5.83913">
        <ele>542.09</ele>
        <time>2020-10-12T11:56:29.000Z</time>
      </trkpt>
      <trkpt lat="45.19009" lon="5.8394">
        <ele>541.58</ele>
        <time>2020-10-12T11:56:34.000Z</time>
      </trkpt>
      <trkpt lat="45.19014" lon="5.8397">
        <ele>544.5</ele>
        <time>2020-10-12T11:56:39.000Z</time>
      </trkpt>
      <trkpt lat="45.19021" lon="5.83999">
        <ele>547.51</ele>
        <time>2020-10-12T11:56:44.000Z</time>
      </trkpt>
      <trkpt lat="45.19029" lon="5.84027">
        <ele>548.68</ele>
        <time>2020-10-12T11:56:49.000Z</time>
      </trkpt>
      <trkpt lat="45.19032" lon="5.84055">
        <ele>551.2</ele>
        <time>2020-10-12T11:56:54.000Z</time>
      </trkpt>
      <trkpt lat="45.19019" lon="5.84082">
        <ele>552.83</ele>
        <time>2020-10-12T11:56:59.000Z</time>
      </trkpt>
      <trkpt lat="45.19003" lon="5.84105">
        <ele>556.04</ele>
        <time>2020-10-12T11:57:04.000Z</time>
      </trkpt>
      <trkpt lat="45.18978" lon="5.8412">
        <ele>557.9</ele>
        <time>2020-10-12T11:57:09.000Z</time>
      </trkpt>
      <trkpt lat="45.18953" lon="5.84136">
        <ele>557.57</ele>
        <time>2020-10-12T11:57:14.000Z</time>
      </trkpt>
      <trkpt lat="45.18928" lon="5.84155">
        <ele>557.85</ele>
        <time>2020-10-12T11:57:19.000Z</time>
      </trkpt>
      <trkpt lat="45.18915" lon="5.84193">
        <ele>554.84</ele>
        <time>2020-10-12T11:57:24.000Z</time>
      </trkpt>
      <trkpt lat="45.1891" lon="5.84235">
        <ele>556.33</ele>
        <time>2020-10-12T11:57:29.000Z</time>
      </trkpt>
      <trkpt lat="45.18906" lon="5.84274">
        <ele>557.03</ele>
        <time>2020-10-12T11:57:34.000Z</time>
      </trkpt>
      <trkpt lat="45.18904" lon="5.84309">
        <ele>557.29</ele>
        <time>2020-10-12T11:57:39.000Z</time>
      </trkpt>
      <trkpt lat="45.18896" lon="5.8434">
        <ele>559.5</ele>
        <time>2020-10-12T11:57:44.000Z</time>
      </trkpt>
      <trkpt lat="45.18888" lon="5.8437">
        <ele>558.88</ele>
        <time>2020-10-12T11:57:49.000Z</time>
      </trkpt>
      <trkpt lat="45.18889" lon="5.84402">
        <ele>560.55</ele>
        <time>2020-10-12T11:57:54.000Z</time>
      </trkpt>
      <trkpt lat="45.18902" lon="5.8443">
        <ele>563.47</ele>
        <time>2020-10-12T11:57:59.000Z</time>
      </trkpt>
      <trkpt lat="45.18912" lon="5.84456">
        <ele>565.76</ele>
        <time>2020-10-12T11:58:04.000Z</time>
      </trkpt>
      <trkpt lat="45.18911" lon="5.84487">
        <ele>570.1</ele>
        <time>2020-10-12T11:58:09.000Z</time>
      </trkpt>
      <trkpt lat="45.18909" lon="5.84515">
        <ele>575.29</ele>
        <time>2020-10-12T11:58:14.000Z</time>
      </trkpt>
      <trkpt lat="45.18904" lon="5.8454">
        <ele>577.6</ele>
        <time>2020-10-12T11:58:19.000Z</time>
      </trkpt>
      <trkpt lat="45.18877" lon="5.84539">
        <ele>576.93</ele>
        <time>2020-10-12T11:58:24.000Z</time>
      </trkpt>
      <trkpt lat="45.18854" lon="5.84535">
        <ele>577.9</ele>
        <time>2020-10-12T11:58:29.000Z</time>
      </trkpt>
      <trkpt lat="45.18827" lon="5.84533">
        <ele>578.03</ele>
        <time>2020-10-12T11:58:34.000Z</time>
      </trkpt>
      <trkpt lat="45.18796" lon="5.84539">
        <ele>577.17</ele>
        <time>2020-10-12T11:58:39.000Z</time>
      </trkpt>
      <trkpt lat="45.18772" lon="5.8456">
        <ele>578</ele>
        <time>2020-10-12T11:58:44.000Z</time>
      </trkpt>
      <trkpt lat="45.1875" lon="5.8458">
        <ele>576.23</ele>
        <time>2020-10-12T11:58:49.000Z</time>
      </trkpt>
      <trkpt lat="45.18731" lon="5.84601">
        <ele>575.32</ele>
        <time>2020-10-12T11:58:54.000Z</time>
      </trkpt>
      <trkpt lat="45.18719" lon="5.8463">
        <ele>575.12</ele>
        <time>2020-10-12T11:58:59.000Z</time>
      </trkpt>
      <trkpt lat="45.187" lon="5.84661">
        <ele>572.02</ele>
        <time>2020-10-12T11:59:04.000Z</time>
      </trkpt>
      <trkpt lat="45.18675" lon="5.84676">
        <ele>574.96</ele>
        <time>2020-10-12T11:59:09.000Z</time>
      </trkpt>
      <trkpt lat="45.18643" lon="5.84673">
        <ele>573.46</ele>
        <time>2020-10-12T11:59:14.000Z</time>
      </trkpt>
      <trkpt lat="45.18616" lon="5.84672">
        <ele>575.25</ele>
        <time>2020-10-12T11:59:19.000Z</time>
      </trkpt>
      <trkpt lat="45.186" lon="5.84694">
        <ele>576.24</ele>
        <time>2020-10-12T11:59:24.000Z</time>
      </trkpt>
      <trkpt lat="45.18601" lon="5.84732">
        <ele>577.79</ele>
        <time>2020-10-12T11:59:29.000Z</time>
      </trkpt>
      <trkpt lat="45.18613" lon="5.84769">
        <ele>579.72</ele>
        <time>2020-10-12T11:59:34.000Z</time>
      </trkpt>
      <trkpt lat="45.18622" lon="5.84816">
        <ele>577.86</ele>
        <time>2020-10-12T11:59:39.000Z</time>
      </trkpt>
      <trkpt lat="45.18629" lon="5.84863">
        <ele>581.12</ele>
        <time>2020-10-12T11:59:44.000Z</time>
      </trkpt>
      <trkpt lat="45.18637" lon="5.84907">
        <ele>584.49</ele>
        <time>2020-10-12T11:59:49.000Z</time>
      </trkpt>
      <trkpt lat="45.18648" lon="5.84955">
        <ele>583.49</ele>
        <time>2020-10-12T11:59:54.000Z</time>
      </trkpt>
      <trkpt lat="45.18666" lon="5.84996">
        <ele>584.73</ele>
        <time>2020-10-12T11:59:59.000Z</time>
      </trkpt>
      <trkpt lat="45.18666" lon="5.85038">
        <ele>587.2</ele>
        <time>2020-10-12T12:00:04.000Z</time>
      </trkpt>
      <trkpt lat="45.1864" lon="5.85057">
        <ele>589.32</ele>
        <time>2020-10-12T12:00:09.000Z</time>
      </trkpt>
      <trkpt lat="45.18607" lon="5.85066">
        <ele>589.93</ele>
        <time>2020-10-12T12:00:14.000Z</time>
      </trkpt>
      <trkpt lat="45.18575" lon="5.8508">
        <ele>588.34</ele>
        <time>2020-10-12T12:00:19.000Z</time>
      </trkpt>
      <trkpt lat="45.1854" lon="5.85094">
        <ele>585.95</ele>
        <time>2020-10-12T12:00:24.000Z</time>
      </trkpt>
      <trkpt lat="45.18509" lon="5.8511">
        <ele>587.77</ele>
        <time>2020-10-12T12:00:29.000Z</time>
      </trkpt>
      <trkpt lat="45.18474" lon="5.85121">
        <ele>586.6</ele>
        <time>2020-10-12T12:00:34.000Z</time>
      </trkpt>
      <trkpt lat="45.18447" lon="5.85139">
        <ele>591.55</ele>
        <time>2020-10-12T12:00:39.000Z</time>
      </trkpt>
      <trkpt lat="45.18412" lon="5.85148">
        <ele>590.25</ele>
        <time>2020-10-12T12:00:44.000Z</time>
      </trkpt>
      <trkpt lat="45.18382" lon="5.85156">
        <ele>591.32</ele>
        <time>2020-10-12T12:00:49.000Z</time>
      </trkpt>
      <trkpt lat="45.18351" lon="5.85162">
        <ele>593.24</ele>
        <time>2020-10-12T12:00:54.000Z</time>
      </trkpt>
      <trkpt lat="45.18321" lon="5.85165">
        <ele>593.86</ele>
        <time>2020-10-12T12:00:59.000Z</time>
      </trkpt>
      <trkpt lat="45.18286" lon="5.85161">
        <ele>593.37</ele>
        <time>2020-10-12T12:01:04.000Z</time>
      </trkpt>
      <trkpt lat="45.18252" lon="5.85156">
        <ele>593.06</ele>
        <time>2020-10-12T12:01:09.000Z</time>
      </trkpt>
      <trkpt lat="45.18218" lon="5.8515">
        <ele>591.9</ele>
        <time>2020-10-12T12:01:14.000Z</time>
      </trkpt>
      <trkpt lat="45.18187" lon="5.85146">
        <ele>591.3</ele>
        <time>2020-10-12T12:01:19.000Z</time>
      </trkpt>
      <trkpt lat="45.18156" lon="5.85147">
        <ele>593.94</ele>
        <time>2020-10-12T12:01:24.000Z</time>
      </trkpt>
      <trkpt lat="45.18126" lon="5.85145">
        <ele>595.55</ele>
        <time>2020-10-12T12:01:29.000Z</time>
      </trkpt>
      <trkpt lat="45.18098" lon="5.85173">
        <ele>596.07</ele>
        <time>2020-10-12T12:01:34.000Z</time>
      </trkpt>
      <trkpt lat="45.18082" lon="5.85205">
        <ele>592.94</ele>
        <time>2020-10-12T12:01:39.000Z</time>
      </trkpt>
      <trkpt lat="45.18071" lon="5.85235">
        <ele>594.63</ele>
        <time>2020-10-12T12:01:44.000Z</time>
      </trkpt>
      <trkpt lat="45.18065" lon="5.85271">
        <ele>596.82</ele>
        <time>2020-10-12T12:01:49.000Z</time>
      </trkpt>
      <trkpt lat="45.18063" lon="5.85307">
        <ele>597.85</ele>
        <time>2020-10-12T12:01:54.000Z</time>
      </trkpt>
      <trkpt lat="45.18062" lon="5.85348">
        <ele>599.21</ele>
        <time>2020-10-12T12:01:59.000Z</time>
      </trkpt>
      <trkpt lat="45.18048" lon="5.85382">
        <ele>599.78</ele>
        <time>2020-10-12T12:02:04.000Z</time>
      </trkpt>
      <trkpt lat="45.1803" lon="5.8541">
        <ele>599.42</ele>
        <time>2020-10-12T12:02:09.000Z</time>
      </trkpt>
      <trkpt lat="45.18005" lon="5.8543">
        <ele>600.81</ele>
        <time>2020-10-12T12:02:14.000Z</time>
      </trkpt>
      <trkpt lat="45.17976" lon="5.85442">
        <ele>604.04</ele>
        <time>2020-10-12T12:02:19.000Z</time>
      </trkpt>
      <trkpt lat="45.17946" lon="5.85448">
        <ele>607.73</ele>
        <time>2020-10-12T12:02:24.000Z</time>
      </trkpt>
      <trkpt lat="45.17913" lon="5.85443">
        <ele>605.29</ele>
        <time>2020-10-12T12:02:29.000Z</time>
      </trkpt>
      <trkpt lat="45.17881" lon="5.85435">
        <ele>604.24</ele>
        <time>2020-10-12T12:02:34.000Z</time>
      </trkpt>
      <trkpt lat="45.1785" lon="5.85428">
        <ele>606.04</ele>
        <time>2020-10-12T12:02:39.000Z</time>
      </trkpt>
      <trkpt lat="45.17824" lon="5.85418">
        <ele>606.24</ele>
        <time>2020-10-12T12:02:44.000Z</time>
      </trkpt>
      <trkpt lat="45.17802" lon="5.85397">
        <ele>606.99</ele>
        <time>2020-10-12T12:02:49.000Z</time>
      </trkpt>
      <trkpt lat="45.17781" lon="5.85376">
        <ele>605.93</ele>
        <time>2020-10-12T12:02:54.000Z</time>
      </trkpt>
      <trkpt lat="45.17759" lon="5.85358">
        <ele>607.39</ele>
        <time>2020-10-12T12:02:59.000Z</time>
      </trkpt>
      <trkpt lat="45.17731" lon="5.85348">
        <ele>611.97</ele>
        <time>2020-10-12T12:03:04.000Z</time>
      </trkpt>
      <trkpt lat="45.17708" lon="5.85341">
        <ele>612.41</ele>
        <time>2020-10-12T12:03:09.000Z</time>
      </trkpt>
      <trkpt lat="45.17679" lon="5.85349">
        <ele>610.03</ele>
        <time>2020-10-12T12:03:14.000Z</time>
      </trkpt>
      <trkpt lat="45.1764" lon="5.85343">
        <ele>610.06</ele>
        <time>2020-10-12T12:03:19.000Z</time>
      </trkpt>
      <trkpt lat="45.17607" lon="5.85358">
        <ele>610.4</ele>
        <time>2020-10-12T12:03:24.000Z</time>
      </trkpt>
      <trkpt lat="45.17602" lon="5.85407">
        <ele>608.86</ele>
        <time>2020-10-12T12:03:29.000Z</time>
      </trkpt>
      <trkpt lat="45.17604" lon="5.85454">
        <ele>607.39</ele>
        <time>2020-10-12T12:03:34.000Z</time>
      </trkpt>
      <trkpt lat="45.17594" lon="5.855">
        <ele>608.86</ele>
        <time>2020-10-12T12:03:39.000Z</time>
      </trkpt>
      <trkpt lat="45.17572" lon="5.8553">
        <ele>609.4</ele>
        <time>2020-10-12T12:03:44.000Z</time>
      </trkpt>
      <trkpt lat="45.17545" lon="5.85545">
        <ele>609.45</ele>
        <time>2020-10-12T12:03:49.000Z</time>
      </trkpt>
      <trkpt lat="45.17515" lon="5.8555">
        <ele>608.22</ele>
        <time>2020-10-12T12:03:54.000Z</time>
      </trkpt>
      <trkpt lat="45.17483" lon="5.85557">
        <ele>607.06</ele>
        <time>2020-10-12T12:03:59.000Z</time>
      </trkpt>
      <trkpt lat="45.17451" lon="5.8557">
        <ele>607.17</ele>
        <time>2020-10-12T12:04:04.000Z</time>
      </trkpt>
      <trkpt lat="45.17446" lon="5.85619">
        <ele>609.73</ele>
        <time>2020-10-12T12:04:09.000Z</time>
      </trkpt>
      <trkpt lat="45.17445" lon="5.85661">
        <ele>608.64</ele>
        <time>2020-10-12T12:04:14.000Z</time>
      </trkpt>
      <trkpt lat="45.17461" lon="5.85702">
        <ele>610.3</ele>
        <time>2020-10-12T12:04:19.000Z</time>
      </trkpt>
      <trkpt lat="45.17475" lon="5.8574">
        <ele>613.89</ele>
        <time>2020-10-12T12:04:24.000Z</time>
      </trkpt>
      <trkpt lat="45.17492" lon="5.85774">
        <ele>614.32</ele>
        <time>2020-10-12T12:04:29.000Z</time>
      </trkpt>
      <trkpt lat="45.17506" lon="5.85813">
        <ele>617.59</ele>
        <time>2020-10-12T12:04:34.000Z</time>
      </trkpt>
      <trkpt lat="45.17511" lon="5.85856">
        <ele>613.82</ele>
        <time>2020-10-12T12:04:39.000Z</time>
      </trkpt>
      <trkpt lat="45.17528" lon="5.859">
        <ele>617.25</ele>
        <time>2020-10-12T12:04:44.000Z</time>
      </trkpt>
      <trkpt lat="45.17548" lon="5.85951">
        <ele>616.57</ele>
        <time>2020-10-12T12:04:49.000Z</time>
      </trkpt>
      <trkpt lat="45.17579" lon="5.85983">
        <ele>617.8</ele>
        <time>2020-10-12T12:04:54.000Z</time>
      </trkpt>
      <trkpt lat="45.17596" lon="5.85998">
        <ele>617.78</ele>
        <time>2020-10-12T12:04:59.000Z</time>
      </trkpt>
      <trkpt lat="45.17609" lon="5.86024">
        <ele>615.91</ele>
        <time>2020-10-12T12:05:04.000Z</time>
      </trkpt>
      <trkpt lat="45.17622" lon="5.86051">
        <ele>617.91</ele>
        <time>2020-10-12T12:05:09.000Z</time>
      </trkpt>
      <trkpt lat="45.17631" lon="5.86078">
        <ele>617.38</ele>
        <time>2020-10-12T12:05:14.000Z</time>
      </trkpt>
      <trkpt lat="45.17629" lon="5.86104">
        <ele>618.86</ele>
        <time>2020-10-12T12:05:19.000Z</time>
      </trkpt>
      <trkpt lat="45.17636" lon="5.86139">
        <ele>620.17</ele>
        <time>2020-10-12T12:05:24.000Z</time>
      </trkpt>
      <trkpt lat="45.17654" lon="5.86174">
        <ele>618.63</ele>
        <time>2020-10-12T12:05:29.000Z</time>
      </trkpt>
      <trkpt lat="45.17677" lon="5.86215">
        <ele>616.06</ele>
        <time>2020-10-12T12:05:34.000Z</time>
      </trkpt>
      <trkpt lat="45.177" lon="5.86259">
        <ele>615.77</ele>
        <time>2020-10-12T12:05:39.000Z</time>
      </trkpt>
      <trkpt lat="45.17722" lon="5.86315">
        <ele>614.39</ele>
        <time>2020-10-12T12:05:44.000Z</time>
      </trkpt>
      <trkpt lat="45.17752" lon="5.86334">
        <ele>616.4</ele>
        <time>2020-10-12T12:05:49.000Z</time>
      </trkpt>
      <trkpt lat="45.17775" lon="5.8635">
        <ele>618.94</ele>
        <time>2020-10-12T12:05:54.000Z</time>
      </trkpt>
      <trkpt lat="45.17796" lon="5.86374">
        <ele>619.41</ele>
        <time>2020-10-12T12:05:59.000Z</time>
      </trkpt>
      <trkpt lat="45.17821" lon="5.86387">
        <ele>617.1</ele>
        <time>2020-10-12T12:06:04.000Z</time>
      </trkpt>
      <trkpt lat="45.17844" lon="5.86381">
        <ele>618.03</ele>
        <time>2020-10-12T12:06:09.000Z</time>
      </trkpt>
      <trkpt lat="45.1787" lon="5.86377">
        <ele>616.77</ele>
        <time>2020-10-12T12:06:14.000Z</time>
      </trkpt>
      <trkpt lat="45.17897" lon="5.86375">
        <ele>617.38</ele>
        <time>2020-10-12T12:06:19.000Z</time>
      </trkpt>
      <trkpt lat="45.17926" lon="5.86372">
        <ele>615.57</ele>
        <time>2020-10-12T12:06:24.000Z</time>
      </trkpt>
      <trkpt lat="45.17954" lon="5.86367">
        <ele>613.55</ele>
        <time>2020-10-12T12:06:29.000Z</time>
      </trkpt>
      <trkpt lat="45.17985" lon="5.86362">
        <ele>615.2</ele>
        <time>2020-10-12T12:06:34.000Z</time>
      </trkpt>
      <trkpt lat="45.18017" lon="5.86387">
        <ele>617.02</ele>
        <time>2020-10-12T12:06:39.000Z</time>
      </trkpt>
      <trkpt lat="45.18017" lon="5.86447">
        <ele>616.98</ele>
        <time>2020-10-12T12:06:44.000Z</time>
      </trkpt>
      <trkpt lat="45.18018" lon="5.86514">
        <ele>614.21</ele>
        <time>2020-10-12T12:06:49.000Z</time>
      </trkpt>
      <trkpt lat="45.18018" lon="5.86589">
        <ele>604.97</ele>
        <time>2020-10-12T12:06:54.000Z</time>
      </trkpt>
      <trkpt lat="45.18012" lon="5.86679">
        <ele>598.86</ele>
        <time>2020-10-12T12:06:59.000Z</time>
      </trkpt>
      <trkpt lat="45.18013" lon="5.86774">
        <ele>593.9</ele>
        <time>2020-10-12T12:07:04.000Z</time>
      </trkpt>
      <trkpt lat="45.18035" lon="5.86866">
        <ele>592.69</ele>
        <time>2020-10-12T12:07:09.000Z</time>
      </trkpt>
      <trkpt lat="45.18051" lon="5.86961">
        <ele>591.83</ele>
        <time>2020-10-12T12:07:14.000Z</time>
      </trkpt>
      <trkpt lat="45.18046" lon="5.87052">
        <ele>586.83</ele>
        <time>2020-10-12T12:07:19.000Z</time>
      </trkpt>
      <trkpt lat="45.1804" lon="5.87124">
        <ele>580.96</ele>
        <time>2020-10-12T12:07:24.000Z</time>
      </trkpt>
      <trkpt lat="45.18045" lon="5.87184">
        <ele>578.52</ele>
        <time>2020-10-12T12:07:29.000Z</time>
      </trkpt>
      <trkpt lat="45.18065" lon="5.87232">
        <ele>573.94</ele>
        <time>2020-10-12T12:07:34.000Z</time>
      </trkpt>
      <trkpt lat="45.18093" lon="5.87198">
        <ele>573.63</ele>
        <time>2020-10-12T12:07:39.000Z</time>
      </trkpt>
      <trkpt lat="45.1811" lon="5.87165">
        <ele>570.9</ele>
        <time>2020-10-12T12:07:44.000Z</time>
      </trkpt>
      <trkpt lat="45.18131" lon="5.87148">
        <ele>570.15</ele>
        <time>2020-10-12T12:07:49.000Z</time>
      </trkpt>
      <trkpt lat="45.18152" lon="5.87138">
        <ele>565.2</ele>
        <time>2020-10-12T12:07:54.000Z</time>
      </trkpt>
      <trkpt lat="45.18164" lon="5.87131">
        <ele>563.92</ele>
        <time>2020-10-12T12:07:59.000Z</time>
      </trkpt>
      <trkpt lat="45.18179" lon="5.87122">
        <ele>561.74</ele>
        <time>2020-10-12T12:08:04.000Z</time>
      </trkpt>
      <trkpt lat="45.18197" lon="5.87113">
        <ele>560.8</ele>
        <time>2020-10-12T12:08:09.000Z</time>
      </trkpt>
      <trkpt lat="45.18206" lon="5.87089">
        <ele>561.31</ele>
        <time>2020-10-12T12:08:14.000Z</time>
      </trkpt>
      <trkpt lat="45.18213" lon="5.87063">
        <ele>563.79</ele>
        <time>2020-10-12T12:08:19.000Z</time>
      </trkpt>
      <trkpt lat="45.18227" lon="5.87022">
        <ele>570.63</ele>
        <time>2020-10-12T12:08:24.000Z</time>
      </trkpt>
      <trkpt lat="45.18233" lon="5.86992">
        <ele>572.06</ele>
        <time>2020-10-12T12:08:29.000Z</time>
      </trkpt>
      <trkpt lat="45.18241" lon="5.86965">
        <ele>574.62</ele>
        <time>2020-10-12T12:08:34.000Z</time>
      </trkpt>
      <trkpt lat="45.18255" lon="5.86938">
        <ele>572.6</ele>
        <time>2020-10-12T12:08:39.000Z</time>
      </trkpt>
      <trkpt lat="45.18259" lon="5.86916">
        <ele>573.29</ele>
        <time>2020-10-12T12:08:44.000Z</time>
      </trkpt>
      <trkpt lat="45.18265" lon="5.86887">
        <ele>574.4</ele>
        <time>2020-10-12T12:08:49.000Z</time>
      </trkpt>
      <trkpt lat="45.18267" lon="5.86857">
        <ele>578.01</ele>
        <time>2020-10-12T12:08:54.000Z</time>
      </trkpt>
      <trkpt lat="45.18276" lon="5.86827">
        <ele>583.19</ele>
        <time>2020-10-12T12:08:59.000Z</time>
      </trkpt>
      <trkpt lat="45.18282" lon="5.86802">
        <ele>588.2</ele>
        <time>2020-10-12T12:09:04.000Z</time>
      </trkpt>
      <trkpt lat="45.18288" lon="5.86774">
        <ele>590.95</ele>
        <time>2020-10-12T12:09:09.000Z</time>
      </trkpt>
      <trkpt lat="45.18293" lon="5.86744">
        <ele>592.33</ele>
        <time>2020-10-12T12:09:14.000Z</time>
      </trkpt>
      <trkpt lat="45.183" lon="5.86717">
        <ele>595.73</ele>
        <time>2020-10-12T12:09:19.000Z</time>
      </trkpt>
      <trkpt lat="45.18313" lon="5.86698">
        <ele>597.79</ele>
        <time>2020-10-12T12:09:24.000Z</time>
      </trkpt>
      <trkpt lat="45.18329" lon="5.8668">
        <ele>599.03</ele>
        <time>2020-10-12T12:09:29.000Z</time>
      </trkpt>
      <trkpt lat="45.18344" lon="5.86662">
        <ele>598.85</ele>
        <time>2020-10-12T12:09:34.000Z</time>
      </trkpt>
      <trkpt lat="45.18359" lon="5.86642">
        <ele>601.6</ele>
        <time>2020-10-12T12:09:39.000Z</time>
      </trkpt>
      <trkpt lat="45.18373" lon="5.86621">
        <ele>603.22</ele>
        <time>2020-10-12T12:09:44.000Z</time>
      </trkpt>
      <trkpt lat="45.18385" lon="5.866">
        <ele>604.03</ele>
        <time>2020-10-12T12:09:49.000Z</time>
      </trkpt>
      <trkpt lat="45.18403" lon="5.86587">
        <ele>606.22</ele>
        <time>2020-10-12T12:09:54.000Z</time>
      </trkpt>
      <trkpt lat="45.18422" lon="5.86598">
        <ele>610.74</ele>
        <time>2020-10-12T12:09:59.000Z</time>
      </trkpt>
      <trkpt lat="45.18438" lon="5.86616">
        <ele>611.83</ele>
        <time>2020-10-12T12:10:04.000Z</time>
      </trkpt>
      <trkpt lat="45.18451" lon="5.8663">
        <ele>610.66</ele>
        <time>2020-10-12T12:10:09.000Z</time>
      </trkpt>
      <trkpt lat="45.18467" lon="5.86645">
        <ele>610.68</ele>
        <time>2020-10-12T12:10:14.000Z</time>
      </trkpt>
      <trkpt lat="45.18482" lon="5.86669">
        <ele>610.28</ele>
        <time>2020-10-12T12:10:19.000Z</time>
      </trkpt>
      <trkpt lat="45.18491" lon="5.86695">
        <ele>614.72</ele>
        <time>2020-10-12T12:10:24.000Z</time>
      </trkpt>
      <trkpt lat="45.18498" lon="5.86714">
        <ele>619.32</ele>
        <time>2020-10-12T12:10:29.000Z</time>
      </trkpt>
      <trkpt lat="45.18487" lon="5.86721">
        <ele>623.82</ele>
        <time>2020-10-12T12:10:34.000Z</time>
      </trkpt>
      <trkpt lat="45.18477" lon="5.86743">
        <ele>617.06</ele>
        <time>2020-10-12T12:10:39.000Z</time>
      </trkpt>
      <trkpt lat="45.18464" lon="5.8676">
        <ele>618.98</ele>
        <time>2020-10-12T12:10:44.000Z</time>
      </trkpt>
      <trkpt lat="45.18449" lon="5.8678">
        <ele>623.37</ele>
        <time>2020-10-12T12:10:49.000Z</time>
      </trkpt>
      <trkpt lat="45.18435" lon="5.86803">
        <ele>628.59</ele>
        <time>2020-10-12T12:10:54.000Z</time>
      </trkpt>
      <trkpt lat="45.18426" lon="5.8683">
        <ele>634.18</ele>
        <time>2020-10-12T12:10:59.000Z</time>
      </trkpt>
      <trkpt lat="45.18419" lon="5.86856">
        <ele>635.7</ele>
        <time>2020-10-12T12:11:04.000Z</time>
      </trkpt>
      <trkpt lat="45.1841" lon="5.8688">
        <ele>639.07</ele>
        <time>2020-10-12T12:11:09.000Z</time>
      </trkpt>
      <trkpt lat="45.18402" lon="5.86902">
        <ele>642.3</ele>
        <time>2020-10-12T12:11:14.000Z</time>
      </trkpt>
      <trkpt lat="45.18393" lon="5.86922">
        <ele>643.75</ele>
        <time>2020-10-12T12:11:19.000Z</time>
      </trkpt>
      <trkpt lat="45.18384" lon="5.86944">
        <ele>646.67</ele>
        <time>2020-10-12T12:11:24.000Z</time>
      </trkpt>
      <trkpt lat="45.18376" lon="5.86965">
        <ele>648.23</ele>
        <time>2020-10-12T12:11:29.000Z</time>
      </trkpt>
      <trkpt lat="45.18368" lon="5.86987">
        <ele>648.38</ele>
        <time>2020-10-12T12:11:34.000Z</time>
      </trkpt>
      <trkpt lat="45.18363" lon="5.87009">
        <ele>649.85</ele>
        <time>2020-10-12T12:11:39.000Z</time>
      </trkpt>
      <trkpt lat="45.18364" lon="5.87032">
        <ele>649.12</ele>
        <time>2020-10-12T12:11:44.000Z</time>
      </trkpt>
      <trkpt lat="45.18362" lon="5.87055">
        <ele>649.74</ele>
        <time>2020-10-12T12:11:49.000Z</time>
      </trkpt>
      <trkpt lat="45.18364" lon="5.87082">
        <ele>653.01</ele>
        <time>2020-10-12T12:11:54.000Z</time>
      </trkpt>
      <trkpt lat="45.18365" lon="5.87105">
        <ele>657.29</ele>
        <time>2020-10-12T12:11:59.000Z</time>
      </trkpt>
      <trkpt lat="45.18363" lon="5.87131">
        <ele>660.94</ele>
        <time>2020-10-12T12:12:04.000Z</time>
      </trkpt>
      <trkpt lat="45.1836" lon="5.87157">
        <ele>660.69</ele>
        <time>2020-10-12T12:12:09.000Z</time>
      </trkpt>
      <trkpt lat="45.18365" lon="5.87181">
        <ele>660.17</ele>
        <time>2020-10-12T12:12:14.000Z</time>
      </trkpt>
      <trkpt lat="45.18381" lon="5.87194">
        <ele>665.65</ele>
        <time>2020-10-12T12:12:19.000Z</time>
      </trkpt>
      <trkpt lat="45.18397" lon="5.87207">
        <ele>666.31</ele>
        <time>2020-10-12T12:12:24.000Z</time>
      </trkpt>
      <trkpt lat="45.18409" lon="5.87222">
        <ele>668.09</ele>
        <time>2020-10-12T12:12:29.000Z</time>
      </trkpt>
      <trkpt lat="45.18401" lon="5.87243">
        <ele>665.98</ele>
        <time>2020-10-12T12:12:34.000Z</time>
      </trkpt>
      <trkpt lat="45.18389" lon="5.87262">
        <ele>669.04</ele>
        <time>2020-10-12T12:12:39.000Z</time>
      </trkpt>
      <trkpt lat="45.18384" lon="5.87283">
        <ele>667.99</ele>
        <time>2020-10-12T12:12:44.000Z</time>
      </trkpt>
      <trkpt lat="45.18385" lon="5.87307">
        <ele>671.2</ele>
        <time>2020-10-12T12:12:49.000Z</time>
      </trkpt>
      <trkpt lat="45.18391" lon="5.87329">
        <ele>672.99</ele>
        <time>2020-10-12T12:12:54.000Z</time>
      </trkpt>
      <trkpt lat="45.18396" lon="5.87352">
        <ele>674.98</ele>
        <time>2020-10-12T12:12:59.000Z</time>
      </trkpt>
      <trkpt lat="45.18395" lon="5.87376">
        <ele>677.48</ele>
        <time>2020-10-12T12:13:04.000Z</time>
      </trkpt>
      <trkpt lat="45.18385" lon="5.8739">
        <ele>680.57</ele>
        <time>2020-10-12T12:13:09.000Z</time>
      </trkpt>
      <trkpt lat="45.18377" lon="5.87381">
        <ele>684.57</ele>
        <time>2020-10-12T12:13:15.000Z</time>
      </trkpt>
      <trkpt lat="45.18375" lon="5.87372">
        <ele>686.52</ele>
        <time>2020-10-12T12:20:23.000Z</time>
      </trkpt>
    </trkseg>
  </trk>
</gpx>